<?xml version="1.0" encoding="UTF-8" standalone="no" ?>
<gpx xmlns="http://www.topografix.com/GPX/1/1" xmlns:xsi="http://www.w3.org/2001/XMLSchema-instance" xsi:schemaLocation="http://www.topografix.com/GPX/1/1 http://www.topografix.com/GPX/1/1/gpx.xsd" version="1.1" creator="VisuGPX - https://www.visugpx.com">
  <metadata>
    <name>Peyrelevade la métairie petite</name>
    <desc><![CDATA[Circuit parcourant la campagne au sud de Cahors.]]></desc>
  </metadata>
  <trk>
    <name><![CDATA[28 janv. 2018 14:08:03]]></name>
    <trkseg>
      <trkpt lat="44.40314" lon="1.46429">
        <ele>312.22</ele>
        <time>2018-01-28T13:08:10.394Z</time>
      </trkpt>
      <trkpt lat="44.40311" lon="1.46448">
        <ele>312.68</ele>
        <time>2018-01-28T13:08:28.999Z</time>
      </trkpt>
      <trkpt lat="44.40312" lon="1.46464">
        <ele>311.07</ele>
        <time>2018-01-28T13:08:40.999Z</time>
      </trkpt>
      <trkpt lat="44.40316" lon="1.46476">
        <ele>311.56</ele>
        <time>2018-01-28T13:08:51.999Z</time>
      </trkpt>
      <trkpt lat="44.40313" lon="1.46489">
        <ele>312.45</ele>
        <time>2018-01-28T13:08:59.999Z</time>
      </trkpt>
      <trkpt lat="44.40306" lon="1.46499">
        <ele>314.72</ele>
        <time>2018-01-28T13:09:10.001Z</time>
      </trkpt>
      <trkpt lat="44.403" lon="1.46509">
        <ele>315.62</ele>
        <time>2018-01-28T13:09:19.001Z</time>
      </trkpt>
      <trkpt lat="44.40296" lon="1.4652">
        <ele>316.43</ele>
        <time>2018-01-28T13:09:26.001Z</time>
      </trkpt>
      <trkpt lat="44.40291" lon="1.46534">
        <ele>317.55</ele>
        <time>2018-01-28T13:09:35.001Z</time>
      </trkpt>
      <trkpt lat="44.40285" lon="1.46546">
        <ele>318.47</ele>
        <time>2018-01-28T13:09:43.001Z</time>
      </trkpt>
      <trkpt lat="44.40278" lon="1.46554">
        <ele>319.01</ele>
        <time>2018-01-28T13:09:50.001Z</time>
      </trkpt>
      <trkpt lat="44.40272" lon="1.46565">
        <ele>319.95</ele>
        <time>2018-01-28T13:09:59.001Z</time>
      </trkpt>
      <trkpt lat="44.40266" lon="1.46575">
        <ele>320.36</ele>
        <time>2018-01-28T13:10:04.999Z</time>
      </trkpt>
      <trkpt lat="44.40258" lon="1.46584">
        <ele>320.55</ele>
        <time>2018-01-28T13:10:14.001Z</time>
      </trkpt>
      <trkpt lat="44.40252" lon="1.46593">
        <ele>320.55</ele>
        <time>2018-01-28T13:10:22.001Z</time>
      </trkpt>
      <trkpt lat="44.40244" lon="1.46601">
        <ele>320.9</ele>
        <time>2018-01-28T13:10:28.999Z</time>
      </trkpt>
      <trkpt lat="44.40237" lon="1.46609">
        <ele>321.4</ele>
        <time>2018-01-28T13:10:36.999Z</time>
      </trkpt>
      <trkpt lat="44.40229" lon="1.46618">
        <ele>320.72</ele>
        <time>2018-01-28T13:10:43.999Z</time>
      </trkpt>
      <trkpt lat="44.40222" lon="1.46624">
        <ele>320.23</ele>
        <time>2018-01-28T13:10:50.001Z</time>
      </trkpt>
      <trkpt lat="44.40214" lon="1.46633">
        <ele>320.18</ele>
        <time>2018-01-28T13:10:59.001Z</time>
      </trkpt>
      <trkpt lat="44.40208" lon="1.46643">
        <ele>319.9</ele>
        <time>2018-01-28T13:11:07.001Z</time>
      </trkpt>
      <trkpt lat="44.402" lon="1.46652">
        <ele>319.48</ele>
        <time>2018-01-28T13:11:12.999Z</time>
      </trkpt>
      <trkpt lat="44.40194" lon="1.46661">
        <ele>319.8</ele>
        <time>2018-01-28T13:11:20.999Z</time>
      </trkpt>
      <trkpt lat="44.40188" lon="1.46671">
        <ele>319.95</ele>
        <time>2018-01-28T13:11:27.001Z</time>
      </trkpt>
      <trkpt lat="44.40182" lon="1.46681">
        <ele>319.94</ele>
        <time>2018-01-28T13:11:34.001Z</time>
      </trkpt>
      <trkpt lat="44.40177" lon="1.46692">
        <ele>320.15</ele>
        <time>2018-01-28T13:11:43.999Z</time>
      </trkpt>
      <trkpt lat="44.40171" lon="1.46704">
        <ele>319.97</ele>
        <time>2018-01-28T13:11:51.999Z</time>
      </trkpt>
      <trkpt lat="44.40165" lon="1.46715">
        <ele>319.75</ele>
        <time>2018-01-28T13:11:59.999Z</time>
      </trkpt>
      <trkpt lat="44.4016" lon="1.46728">
        <ele>319.43</ele>
        <time>2018-01-28T13:12:08.999Z</time>
      </trkpt>
      <trkpt lat="44.40155" lon="1.46739">
        <ele>319.79</ele>
        <time>2018-01-28T13:12:15.001Z</time>
      </trkpt>
      <trkpt lat="44.40149" lon="1.4675">
        <ele>320.44</ele>
        <time>2018-01-28T13:12:22.001Z</time>
      </trkpt>
      <trkpt lat="44.40143" lon="1.4676">
        <ele>320.4</ele>
        <time>2018-01-28T13:12:30.001Z</time>
      </trkpt>
      <trkpt lat="44.40137" lon="1.4677">
        <ele>319</ele>
        <time>2018-01-28T13:12:38.001Z</time>
      </trkpt>
      <trkpt lat="44.4013" lon="1.4678">
        <ele>318.01</ele>
        <time>2018-01-28T13:12:46.001Z</time>
      </trkpt>
      <trkpt lat="44.40123" lon="1.46789">
        <ele>317.2</ele>
        <time>2018-01-28T13:12:55.001Z</time>
      </trkpt>
      <trkpt lat="44.40114" lon="1.46792">
        <ele>316.74</ele>
        <time>2018-01-28T13:13:00.999Z</time>
      </trkpt>
      <trkpt lat="44.40111" lon="1.46805">
        <ele>315.87</ele>
        <time>2018-01-28T13:13:11.001Z</time>
      </trkpt>
      <trkpt lat="44.40121" lon="1.46808">
        <ele>316.36</ele>
        <time>2018-01-28T13:13:19.999Z</time>
      </trkpt>
      <trkpt lat="44.40131" lon="1.46809">
        <ele>316.93</ele>
        <time>2018-01-28T13:13:26.001Z</time>
      </trkpt>
      <trkpt lat="44.4014" lon="1.46809">
        <ele>317.57</ele>
        <time>2018-01-28T13:13:32.999Z</time>
      </trkpt>
      <trkpt lat="44.40149" lon="1.4681">
        <ele>317.58</ele>
        <time>2018-01-28T13:13:40.999Z</time>
      </trkpt>
      <trkpt lat="44.40159" lon="1.46811">
        <ele>318.02</ele>
        <time>2018-01-28T13:13:51.999Z</time>
      </trkpt>
      <trkpt lat="44.40169" lon="1.46812">
        <ele>318.29</ele>
        <time>2018-01-28T13:13:56.999Z</time>
      </trkpt>
      <trkpt lat="44.40178" lon="1.46814">
        <ele>318.72</ele>
        <time>2018-01-28T13:14:03.999Z</time>
      </trkpt>
      <trkpt lat="44.40187" lon="1.46818">
        <ele>319.37</ele>
        <time>2018-01-28T13:14:11.999Z</time>
      </trkpt>
      <trkpt lat="44.40191" lon="1.4683">
        <ele>319.42</ele>
        <time>2018-01-28T13:14:24.999Z</time>
      </trkpt>
      <trkpt lat="44.40199" lon="1.46837">
        <ele>319.34</ele>
        <time>2018-01-28T13:14:36.999Z</time>
      </trkpt>
      <trkpt lat="44.40207" lon="1.46831">
        <ele>318.76</ele>
        <time>2018-01-28T13:14:43.999Z</time>
      </trkpt>
      <trkpt lat="44.40216" lon="1.46826">
        <ele>318.05</ele>
        <time>2018-01-28T13:14:50.001Z</time>
      </trkpt>
      <trkpt lat="44.40226" lon="1.4682">
        <ele>317.91</ele>
        <time>2018-01-28T13:14:59.001Z</time>
      </trkpt>
      <trkpt lat="44.40234" lon="1.46814">
        <ele>318.03</ele>
        <time>2018-01-28T13:15:06.001Z</time>
      </trkpt>
      <trkpt lat="44.40242" lon="1.46804">
        <ele>317.9</ele>
        <time>2018-01-28T13:15:15.001Z</time>
      </trkpt>
      <trkpt lat="44.4025" lon="1.46796">
        <ele>317.81</ele>
        <time>2018-01-28T13:15:23.001Z</time>
      </trkpt>
      <trkpt lat="44.40257" lon="1.46788">
        <ele>318.04</ele>
        <time>2018-01-28T13:15:32.999Z</time>
      </trkpt>
      <trkpt lat="44.40263" lon="1.46779">
        <ele>317.72</ele>
        <time>2018-01-28T13:15:40.999Z</time>
      </trkpt>
      <trkpt lat="44.4027" lon="1.46768">
        <ele>317.78</ele>
        <time>2018-01-28T13:15:48.999Z</time>
      </trkpt>
      <trkpt lat="44.40278" lon="1.46759">
        <ele>317.73</ele>
        <time>2018-01-28T13:15:55.999Z</time>
      </trkpt>
      <trkpt lat="44.40285" lon="1.4675">
        <ele>318.24</ele>
        <time>2018-01-28T13:16:03.001Z</time>
      </trkpt>
      <trkpt lat="44.40293" lon="1.46741">
        <ele>318.41</ele>
        <time>2018-01-28T13:16:11.001Z</time>
      </trkpt>
      <trkpt lat="44.40302" lon="1.46735">
        <ele>318.61</ele>
        <time>2018-01-28T13:16:19.999Z</time>
      </trkpt>
      <trkpt lat="44.40311" lon="1.4673">
        <ele>319.26</ele>
        <time>2018-01-28T13:16:30.001Z</time>
      </trkpt>
      <trkpt lat="44.40321" lon="1.46727">
        <ele>319.39</ele>
        <time>2018-01-28T13:16:39.999Z</time>
      </trkpt>
      <trkpt lat="44.4033" lon="1.46728">
        <ele>319.16</ele>
        <time>2018-01-28T13:16:50.001Z</time>
      </trkpt>
      <trkpt lat="44.40339" lon="1.46728">
        <ele>318.42</ele>
        <time>2018-01-28T13:16:56.999Z</time>
      </trkpt>
      <trkpt lat="44.40349" lon="1.4673">
        <ele>318.27</ele>
        <time>2018-01-28T13:17:03.999Z</time>
      </trkpt>
      <trkpt lat="44.40358" lon="1.46733">
        <ele>318.93</ele>
        <time>2018-01-28T13:17:12.999Z</time>
      </trkpt>
      <trkpt lat="44.40366" lon="1.46737">
        <ele>319.4</ele>
        <time>2018-01-28T13:17:19.001Z</time>
      </trkpt>
      <trkpt lat="44.40375" lon="1.46742">
        <ele>318.86</ele>
        <time>2018-01-28T13:17:30.001Z</time>
      </trkpt>
      <trkpt lat="44.40384" lon="1.46746">
        <ele>319.1</ele>
        <time>2018-01-28T13:17:38.001Z</time>
      </trkpt>
      <trkpt lat="44.40393" lon="1.4675">
        <ele>318.95</ele>
        <time>2018-01-28T13:17:43.999Z</time>
      </trkpt>
      <trkpt lat="44.40403" lon="1.46754">
        <ele>318.53</ele>
        <time>2018-01-28T13:17:50.001Z</time>
      </trkpt>
      <trkpt lat="44.40412" lon="1.4676">
        <ele>318.98</ele>
        <time>2018-01-28T13:17:55.999Z</time>
      </trkpt>
      <trkpt lat="44.4042" lon="1.46767">
        <ele>319.57</ele>
        <time>2018-01-28T13:18:04.999Z</time>
      </trkpt>
      <trkpt lat="44.40429" lon="1.46773">
        <ele>320.18</ele>
        <time>2018-01-28T13:18:12.999Z</time>
      </trkpt>
      <trkpt lat="44.40439" lon="1.46776">
        <ele>320.14</ele>
        <time>2018-01-28T13:18:22.001Z</time>
      </trkpt>
      <trkpt lat="44.40448" lon="1.46778">
        <ele>320.32</ele>
        <time>2018-01-28T13:18:30.001Z</time>
      </trkpt>
      <trkpt lat="44.40457" lon="1.46779">
        <ele>320.47</ele>
        <time>2018-01-28T13:18:36.999Z</time>
      </trkpt>
      <trkpt lat="44.40466" lon="1.46782">
        <ele>320.44</ele>
        <time>2018-01-28T13:18:43.999Z</time>
      </trkpt>
      <trkpt lat="44.40476" lon="1.46782">
        <ele>320.42</ele>
        <time>2018-01-28T13:18:52.999Z</time>
      </trkpt>
      <trkpt lat="44.40485" lon="1.46781">
        <ele>320.11</ele>
        <time>2018-01-28T13:19:00.999Z</time>
      </trkpt>
      <trkpt lat="44.40495" lon="1.46781">
        <ele>320.07</ele>
        <time>2018-01-28T13:19:07.999Z</time>
      </trkpt>
      <trkpt lat="44.40503" lon="1.46782">
        <ele>320.42</ele>
        <time>2018-01-28T13:19:15.999Z</time>
      </trkpt>
      <trkpt lat="44.40513" lon="1.46783">
        <ele>320.68</ele>
        <time>2018-01-28T13:19:24.999Z</time>
      </trkpt>
      <trkpt lat="44.40523" lon="1.46782">
        <ele>321.22</ele>
        <time>2018-01-28T13:19:32.999Z</time>
      </trkpt>
      <trkpt lat="44.40533" lon="1.46783">
        <ele>321.95</ele>
        <time>2018-01-28T13:19:43.001Z</time>
      </trkpt>
      <trkpt lat="44.40542" lon="1.46785">
        <ele>322.6</ele>
        <time>2018-01-28T13:19:51.001Z</time>
      </trkpt>
      <trkpt lat="44.40552" lon="1.46788">
        <ele>322.65</ele>
        <time>2018-01-28T13:19:56.999Z</time>
      </trkpt>
      <trkpt lat="44.40561" lon="1.46789">
        <ele>322.98</ele>
        <time>2018-01-28T13:20:04.999Z</time>
      </trkpt>
      <trkpt lat="44.40571" lon="1.4679">
        <ele>323.19</ele>
        <time>2018-01-28T13:20:11.999Z</time>
      </trkpt>
      <trkpt lat="44.4058" lon="1.46791">
        <ele>322.95</ele>
        <time>2018-01-28T13:20:20.999Z</time>
      </trkpt>
      <trkpt lat="44.4059" lon="1.46791">
        <ele>322.51</ele>
        <time>2018-01-28T13:20:30.001Z</time>
      </trkpt>
      <trkpt lat="44.40598" lon="1.46794">
        <ele>321.94</ele>
        <time>2018-01-28T13:20:39.001Z</time>
      </trkpt>
      <trkpt lat="44.40606" lon="1.46803">
        <ele>321.21</ele>
        <time>2018-01-28T13:20:47.999Z</time>
      </trkpt>
      <trkpt lat="44.40614" lon="1.46811">
        <ele>320.86</ele>
        <time>2018-01-28T13:20:55.999Z</time>
      </trkpt>
      <trkpt lat="44.40622" lon="1.46818">
        <ele>320.92</ele>
        <time>2018-01-28T13:21:04.999Z</time>
      </trkpt>
      <trkpt lat="44.4063" lon="1.46826">
        <ele>321.16</ele>
        <time>2018-01-28T13:21:11.999Z</time>
      </trkpt>
      <trkpt lat="44.40638" lon="1.46831">
        <ele>320.76</ele>
        <time>2018-01-28T13:21:19.001Z</time>
      </trkpt>
      <trkpt lat="44.40646" lon="1.46837">
        <ele>319.89</ele>
        <time>2018-01-28T13:21:26.001Z</time>
      </trkpt>
      <trkpt lat="44.40656" lon="1.46841">
        <ele>319.52</ele>
        <time>2018-01-28T13:21:31.999Z</time>
      </trkpt>
      <trkpt lat="44.40665" lon="1.46843">
        <ele>319.78</ele>
        <time>2018-01-28T13:21:39.999Z</time>
      </trkpt>
      <trkpt lat="44.40674" lon="1.46847">
        <ele>319.89</ele>
        <time>2018-01-28T13:21:47.001Z</time>
      </trkpt>
      <trkpt lat="44.40684" lon="1.46847">
        <ele>319.7</ele>
        <time>2018-01-28T13:21:52.999Z</time>
      </trkpt>
      <trkpt lat="44.40693" lon="1.46849">
        <ele>319.94</ele>
        <time>2018-01-28T13:22:03.001Z</time>
      </trkpt>
      <trkpt lat="44.40702" lon="1.4685">
        <ele>319.56</ele>
        <time>2018-01-28T13:22:11.001Z</time>
      </trkpt>
      <trkpt lat="44.40712" lon="1.4685">
        <ele>319.97</ele>
        <time>2018-01-28T13:22:19.001Z</time>
      </trkpt>
      <trkpt lat="44.40721" lon="1.46851">
        <ele>320.18</ele>
        <time>2018-01-28T13:22:27.001Z</time>
      </trkpt>
      <trkpt lat="44.40731" lon="1.46852">
        <ele>320.26</ele>
        <time>2018-01-28T13:22:35.001Z</time>
      </trkpt>
      <trkpt lat="44.40741" lon="1.46852">
        <ele>320.49</ele>
        <time>2018-01-28T13:22:43.999Z</time>
      </trkpt>
      <trkpt lat="44.40751" lon="1.46853">
        <ele>320.42</ele>
        <time>2018-01-28T13:22:54.001Z</time>
      </trkpt>
      <trkpt lat="44.4076" lon="1.46854">
        <ele>320.36</ele>
        <time>2018-01-28T13:23:00.999Z</time>
      </trkpt>
      <trkpt lat="44.4077" lon="1.46854">
        <ele>320.25</ele>
        <time>2018-01-28T13:23:08.999Z</time>
      </trkpt>
      <trkpt lat="44.4078" lon="1.46853">
        <ele>319.9</ele>
        <time>2018-01-28T13:23:16.999Z</time>
      </trkpt>
      <trkpt lat="44.4079" lon="1.46854">
        <ele>320.25</ele>
        <time>2018-01-28T13:23:28.999Z</time>
      </trkpt>
      <trkpt lat="44.40799" lon="1.4686">
        <ele>320.96</ele>
        <time>2018-01-28T13:23:35.999Z</time>
      </trkpt>
      <trkpt lat="44.40797" lon="1.46873">
        <ele>321.7</ele>
        <time>2018-01-28T13:23:44.999Z</time>
      </trkpt>
      <trkpt lat="44.40791" lon="1.46885">
        <ele>322.53</ele>
        <time>2018-01-28T13:23:51.999Z</time>
      </trkpt>
      <trkpt lat="44.40786" lon="1.46898">
        <ele>322.49</ele>
        <time>2018-01-28T13:24:00.999Z</time>
      </trkpt>
      <trkpt lat="44.40781" lon="1.46909">
        <ele>322.7</ele>
        <time>2018-01-28T13:24:10.001Z</time>
      </trkpt>
      <trkpt lat="44.40775" lon="1.46919">
        <ele>323.21</ele>
        <time>2018-01-28T13:24:19.001Z</time>
      </trkpt>
      <trkpt lat="44.40768" lon="1.46928">
        <ele>322.8</ele>
        <time>2018-01-28T13:24:27.001Z</time>
      </trkpt>
      <trkpt lat="44.40762" lon="1.46939">
        <ele>321.92</ele>
        <time>2018-01-28T13:24:35.999Z</time>
      </trkpt>
      <trkpt lat="44.40757" lon="1.4695">
        <ele>321.88</ele>
        <time>2018-01-28T13:24:44.999Z</time>
      </trkpt>
      <trkpt lat="44.40751" lon="1.46961">
        <ele>321.52</ele>
        <time>2018-01-28T13:24:51.999Z</time>
      </trkpt>
      <trkpt lat="44.40747" lon="1.46973">
        <ele>320.14</ele>
        <time>2018-01-28T13:25:03.001Z</time>
      </trkpt>
      <trkpt lat="44.40744" lon="1.46986">
        <ele>319.21</ele>
        <time>2018-01-28T13:25:11.001Z</time>
      </trkpt>
      <trkpt lat="44.40743" lon="1.46999">
        <ele>318.22</ele>
        <time>2018-01-28T13:25:22.001Z</time>
      </trkpt>
      <trkpt lat="44.40741" lon="1.47012">
        <ele>317.75</ele>
        <time>2018-01-28T13:25:28.999Z</time>
      </trkpt>
      <trkpt lat="44.40738" lon="1.47025">
        <ele>316.87</ele>
        <time>2018-01-28T13:25:36.999Z</time>
      </trkpt>
      <trkpt lat="44.40736" lon="1.47037">
        <ele>315.89</ele>
        <time>2018-01-28T13:25:47.001Z</time>
      </trkpt>
      <trkpt lat="44.40742" lon="1.47047">
        <ele>314.11</ele>
        <time>2018-01-28T13:25:56.999Z</time>
      </trkpt>
      <trkpt lat="44.40748" lon="1.47059">
        <ele>312.29</ele>
        <time>2018-01-28T13:26:06.001Z</time>
      </trkpt>
      <trkpt lat="44.40752" lon="1.4707">
        <ele>311.2</ele>
        <time>2018-01-28T13:26:14.001Z</time>
      </trkpt>
      <trkpt lat="44.40757" lon="1.47081">
        <ele>310.67</ele>
        <time>2018-01-28T13:26:23.001Z</time>
      </trkpt>
      <trkpt lat="44.40763" lon="1.47093">
        <ele>309.39</ele>
        <time>2018-01-28T13:26:32.999Z</time>
      </trkpt>
      <trkpt lat="44.40767" lon="1.47105">
        <ele>308.31</ele>
        <time>2018-01-28T13:26:44.999Z</time>
      </trkpt>
      <trkpt lat="44.40773" lon="1.47114">
        <ele>306.91</ele>
        <time>2018-01-28T13:26:55.999Z</time>
      </trkpt>
      <trkpt lat="44.40777" lon="1.47126">
        <ele>305.09</ele>
        <time>2018-01-28T13:27:08.999Z</time>
      </trkpt>
      <trkpt lat="44.40772" lon="1.47138">
        <ele>303.44</ele>
        <time>2018-01-28T13:27:20.999Z</time>
      </trkpt>
      <trkpt lat="44.40764" lon="1.47146">
        <ele>302.89</ele>
        <time>2018-01-28T13:27:39.001Z</time>
      </trkpt>
      <trkpt lat="44.40759" lon="1.47157">
        <ele>303.56</ele>
        <time>2018-01-28T13:28:00.999Z</time>
      </trkpt>
      <trkpt lat="44.40749" lon="1.47164">
        <ele>302.88</ele>
        <time>2018-01-28T13:28:10.001Z</time>
      </trkpt>
      <trkpt lat="44.4074" lon="1.47173">
        <ele>301.35</ele>
        <time>2018-01-28T13:28:15.999Z</time>
      </trkpt>
      <trkpt lat="44.40733" lon="1.4718">
        <ele>299.84</ele>
        <time>2018-01-28T13:28:22.001Z</time>
      </trkpt>
      <trkpt lat="44.4073" lon="1.47193">
        <ele>298.2</ele>
        <time>2018-01-28T13:28:35.001Z</time>
      </trkpt>
      <trkpt lat="44.40723" lon="1.47212">
        <ele>296.54</ele>
        <time>2018-01-28T13:28:51.999Z</time>
      </trkpt>
      <trkpt lat="44.40717" lon="1.47224">
        <ele>296.27</ele>
        <time>2018-01-28T13:28:55.999Z</time>
      </trkpt>
      <trkpt lat="44.4071" lon="1.47233">
        <ele>296.17</ele>
        <time>2018-01-28T13:29:02.001Z</time>
      </trkpt>
      <trkpt lat="44.40704" lon="1.47243">
        <ele>295.11</ele>
        <time>2018-01-28T13:29:18.001Z</time>
      </trkpt>
      <trkpt lat="44.40697" lon="1.47253">
        <ele>294.21</ele>
        <time>2018-01-28T13:29:31.999Z</time>
      </trkpt>
      <trkpt lat="44.4069" lon="1.47262">
        <ele>294.13</ele>
        <time>2018-01-28T13:29:38.001Z</time>
      </trkpt>
      <trkpt lat="44.40681" lon="1.47274">
        <ele>294.2</ele>
        <time>2018-01-28T13:29:44.999Z</time>
      </trkpt>
      <trkpt lat="44.40674" lon="1.47283">
        <ele>294.03</ele>
        <time>2018-01-28T13:29:54.001Z</time>
      </trkpt>
      <trkpt lat="44.40669" lon="1.47294">
        <ele>293.19</ele>
        <time>2018-01-28T13:30:06.001Z</time>
      </trkpt>
      <trkpt lat="44.40664" lon="1.47306">
        <ele>292.47</ele>
        <time>2018-01-28T13:30:19.001Z</time>
      </trkpt>
      <trkpt lat="44.40662" lon="1.47322">
        <ele>291.35</ele>
        <time>2018-01-28T13:30:30.001Z</time>
      </trkpt>
      <trkpt lat="44.40658" lon="1.47334">
        <ele>291.28</ele>
        <time>2018-01-28T13:30:34.001Z</time>
      </trkpt>
      <trkpt lat="44.40653" lon="1.47345">
        <ele>290.94</ele>
        <time>2018-01-28T13:30:39.001Z</time>
      </trkpt>
      <trkpt lat="44.40648" lon="1.47357">
        <ele>289.6</ele>
        <time>2018-01-28T13:30:47.999Z</time>
      </trkpt>
      <trkpt lat="44.40644" lon="1.47368">
        <ele>286.86</ele>
        <time>2018-01-28T13:30:59.999Z</time>
      </trkpt>
      <trkpt lat="44.40639" lon="1.47379">
        <ele>285.13</ele>
        <time>2018-01-28T13:31:15.001Z</time>
      </trkpt>
      <trkpt lat="44.40634" lon="1.47391">
        <ele>284.44</ele>
        <time>2018-01-28T13:31:24.999Z</time>
      </trkpt>
      <trkpt lat="44.40629" lon="1.47403">
        <ele>284.82</ele>
        <time>2018-01-28T13:31:36.999Z</time>
      </trkpt>
      <trkpt lat="44.40622" lon="1.4741">
        <ele>284.83</ele>
        <time>2018-01-28T13:31:50.001Z</time>
      </trkpt>
      <trkpt lat="44.40616" lon="1.47421">
        <ele>284.47</ele>
        <time>2018-01-28T13:31:59.001Z</time>
      </trkpt>
      <trkpt lat="44.4061" lon="1.47434">
        <ele>283.97</ele>
        <time>2018-01-28T13:32:03.999Z</time>
      </trkpt>
      <trkpt lat="44.40607" lon="1.47446">
        <ele>284.26</ele>
        <time>2018-01-28T13:32:14.001Z</time>
      </trkpt>
      <trkpt lat="44.40601" lon="1.47456">
        <ele>284.03</ele>
        <time>2018-01-28T13:32:19.999Z</time>
      </trkpt>
      <trkpt lat="44.40595" lon="1.47466">
        <ele>283.56</ele>
        <time>2018-01-28T13:32:30.001Z</time>
      </trkpt>
      <trkpt lat="44.40587" lon="1.47473">
        <ele>282.83</ele>
        <time>2018-01-28T13:32:39.001Z</time>
      </trkpt>
      <trkpt lat="44.40585" lon="1.47486">
        <ele>281.65</ele>
        <time>2018-01-28T13:32:48.999Z</time>
      </trkpt>
      <trkpt lat="44.40592" lon="1.47495">
        <ele>280.39</ele>
        <time>2018-01-28T13:32:59.001Z</time>
      </trkpt>
      <trkpt lat="44.40598" lon="1.47507">
        <ele>279.92</ele>
        <time>2018-01-28T13:33:06.001Z</time>
      </trkpt>
      <trkpt lat="44.40599" lon="1.4752">
        <ele>279.07</ele>
        <time>2018-01-28T13:33:16.999Z</time>
      </trkpt>
      <trkpt lat="44.406" lon="1.47533">
        <ele>277.7</ele>
        <time>2018-01-28T13:33:27.001Z</time>
      </trkpt>
      <trkpt lat="44.40598" lon="1.47545">
        <ele>276.69</ele>
        <time>2018-01-28T13:33:35.001Z</time>
      </trkpt>
      <trkpt lat="44.40596" lon="1.47558">
        <ele>275.11</ele>
        <time>2018-01-28T13:33:43.999Z</time>
      </trkpt>
      <trkpt lat="44.40597" lon="1.47571">
        <ele>274.8</ele>
        <time>2018-01-28T13:33:54.001Z</time>
      </trkpt>
      <trkpt lat="44.40594" lon="1.47583">
        <ele>273.87</ele>
        <time>2018-01-28T13:34:02.001Z</time>
      </trkpt>
      <trkpt lat="44.40593" lon="1.47597">
        <ele>272.89</ele>
        <time>2018-01-28T13:34:12.999Z</time>
      </trkpt>
      <trkpt lat="44.4059" lon="1.4761">
        <ele>272.97</ele>
        <time>2018-01-28T13:34:18.001Z</time>
      </trkpt>
      <trkpt lat="44.4059" lon="1.47623">
        <ele>272.17</ele>
        <time>2018-01-28T13:34:30.001Z</time>
      </trkpt>
      <trkpt lat="44.40594" lon="1.47637">
        <ele>271.55</ele>
        <time>2018-01-28T13:34:36.999Z</time>
      </trkpt>
      <trkpt lat="44.40597" lon="1.47649">
        <ele>271.68</ele>
        <time>2018-01-28T13:34:44.999Z</time>
      </trkpt>
      <trkpt lat="44.406" lon="1.47661">
        <ele>271.04</ele>
        <time>2018-01-28T13:34:54.001Z</time>
      </trkpt>
      <trkpt lat="44.40604" lon="1.47673">
        <ele>270.46</ele>
        <time>2018-01-28T13:35:02.001Z</time>
      </trkpt>
      <trkpt lat="44.4061" lon="1.47683">
        <ele>269.4</ele>
        <time>2018-01-28T13:35:11.001Z</time>
      </trkpt>
      <trkpt lat="44.40616" lon="1.47693">
        <ele>268.79</ele>
        <time>2018-01-28T13:35:19.001Z</time>
      </trkpt>
      <trkpt lat="44.40622" lon="1.47704">
        <ele>268.51</ele>
        <time>2018-01-28T13:35:27.999Z</time>
      </trkpt>
      <trkpt lat="44.40628" lon="1.47714">
        <ele>268.19</ele>
        <time>2018-01-28T13:35:36.999Z</time>
      </trkpt>
      <trkpt lat="44.40635" lon="1.47723">
        <ele>267.43</ele>
        <time>2018-01-28T13:35:46.001Z</time>
      </trkpt>
      <trkpt lat="44.40643" lon="1.47731">
        <ele>267.01</ele>
        <time>2018-01-28T13:35:54.001Z</time>
      </trkpt>
      <trkpt lat="44.4065" lon="1.47739">
        <ele>266.61</ele>
        <time>2018-01-28T13:36:03.001Z</time>
      </trkpt>
      <trkpt lat="44.40656" lon="1.47749">
        <ele>266.44</ele>
        <time>2018-01-28T13:36:11.001Z</time>
      </trkpt>
      <trkpt lat="44.40664" lon="1.47756">
        <ele>266.58</ele>
        <time>2018-01-28T13:36:19.001Z</time>
      </trkpt>
      <trkpt lat="44.40672" lon="1.47763">
        <ele>266.82</ele>
        <time>2018-01-28T13:36:28.999Z</time>
      </trkpt>
      <trkpt lat="44.40678" lon="1.47772">
        <ele>267</ele>
        <time>2018-01-28T13:36:38.001Z</time>
      </trkpt>
      <trkpt lat="44.40685" lon="1.47782">
        <ele>265.98</ele>
        <time>2018-01-28T13:36:47.999Z</time>
      </trkpt>
      <trkpt lat="44.40693" lon="1.4779">
        <ele>265.29</ele>
        <time>2018-01-28T13:36:55.001Z</time>
      </trkpt>
      <trkpt lat="44.40699" lon="1.47801">
        <ele>265</ele>
        <time>2018-01-28T13:37:03.001Z</time>
      </trkpt>
      <trkpt lat="44.40704" lon="1.47811">
        <ele>265</ele>
        <time>2018-01-28T13:37:11.001Z</time>
      </trkpt>
      <trkpt lat="44.40712" lon="1.47818">
        <ele>265.29</ele>
        <time>2018-01-28T13:37:19.999Z</time>
      </trkpt>
      <trkpt lat="44.40721" lon="1.47826">
        <ele>265.14</ele>
        <time>2018-01-28T13:37:28.999Z</time>
      </trkpt>
      <trkpt lat="44.40728" lon="1.47835">
        <ele>265.42</ele>
        <time>2018-01-28T13:37:36.999Z</time>
      </trkpt>
      <trkpt lat="44.40735" lon="1.47844">
        <ele>264.79</ele>
        <time>2018-01-28T13:37:50.001Z</time>
      </trkpt>
      <trkpt lat="44.40744" lon="1.47849">
        <ele>263.94</ele>
        <time>2018-01-28T13:37:56.999Z</time>
      </trkpt>
      <trkpt lat="44.40752" lon="1.47854">
        <ele>263.01</ele>
        <time>2018-01-28T13:38:04.999Z</time>
      </trkpt>
      <trkpt lat="44.40761" lon="1.47859">
        <ele>262.34</ele>
        <time>2018-01-28T13:38:15.001Z</time>
      </trkpt>
      <trkpt lat="44.4077" lon="1.47864">
        <ele>261.97</ele>
        <time>2018-01-28T13:38:22.001Z</time>
      </trkpt>
      <trkpt lat="44.40779" lon="1.4787">
        <ele>261.56</ele>
        <time>2018-01-28T13:38:28.999Z</time>
      </trkpt>
      <trkpt lat="44.40787" lon="1.47877">
        <ele>261.23</ele>
        <time>2018-01-28T13:38:36.999Z</time>
      </trkpt>
      <trkpt lat="44.40794" lon="1.47887">
        <ele>261.23</ele>
        <time>2018-01-28T13:38:44.999Z</time>
      </trkpt>
      <trkpt lat="44.40799" lon="1.47898">
        <ele>261</ele>
        <time>2018-01-28T13:38:52.999Z</time>
      </trkpt>
      <trkpt lat="44.40799" lon="1.47911">
        <ele>261.15</ele>
        <time>2018-01-28T13:39:02.001Z</time>
      </trkpt>
      <trkpt lat="44.40801" lon="1.47925">
        <ele>260.55</ele>
        <time>2018-01-28T13:39:08.999Z</time>
      </trkpt>
      <trkpt lat="44.40803" lon="1.47938">
        <ele>260.61</ele>
        <time>2018-01-28T13:39:18.001Z</time>
      </trkpt>
      <trkpt lat="44.40805" lon="1.47951">
        <ele>260.88</ele>
        <time>2018-01-28T13:39:26.001Z</time>
      </trkpt>
      <trkpt lat="44.40808" lon="1.47964">
        <ele>261.04</ele>
        <time>2018-01-28T13:39:34.001Z</time>
      </trkpt>
      <trkpt lat="44.40811" lon="1.47978">
        <ele>260.59</ele>
        <time>2018-01-28T13:39:42.001Z</time>
      </trkpt>
      <trkpt lat="44.40815" lon="1.4799">
        <ele>260.35</ele>
        <time>2018-01-28T13:39:51.001Z</time>
      </trkpt>
      <trkpt lat="44.40823" lon="1.48001">
        <ele>260.19</ele>
        <time>2018-01-28T13:39:59.001Z</time>
      </trkpt>
      <trkpt lat="44.40829" lon="1.4801">
        <ele>260</ele>
        <time>2018-01-28T13:40:06.001Z</time>
      </trkpt>
      <trkpt lat="44.40834" lon="1.4802">
        <ele>260.19</ele>
        <time>2018-01-28T13:40:12.999Z</time>
      </trkpt>
      <trkpt lat="44.40837" lon="1.48034">
        <ele>260.33</ele>
        <time>2018-01-28T13:40:22.001Z</time>
      </trkpt>
      <trkpt lat="44.4084" lon="1.48045">
        <ele>260.31</ele>
        <time>2018-01-28T13:40:30.001Z</time>
      </trkpt>
      <trkpt lat="44.40843" lon="1.48058">
        <ele>260.41</ele>
        <time>2018-01-28T13:40:38.001Z</time>
      </trkpt>
      <trkpt lat="44.40846" lon="1.4807">
        <ele>260.63</ele>
        <time>2018-01-28T13:40:47.001Z</time>
      </trkpt>
      <trkpt lat="44.40849" lon="1.48083">
        <ele>260.64</ele>
        <time>2018-01-28T13:40:55.001Z</time>
      </trkpt>
      <trkpt lat="44.40852" lon="1.48096">
        <ele>260.41</ele>
        <time>2018-01-28T13:41:03.001Z</time>
      </trkpt>
      <trkpt lat="44.40855" lon="1.48109">
        <ele>259.89</ele>
        <time>2018-01-28T13:41:11.001Z</time>
      </trkpt>
      <trkpt lat="44.40856" lon="1.48122">
        <ele>259.74</ele>
        <time>2018-01-28T13:41:19.001Z</time>
      </trkpt>
      <trkpt lat="44.40859" lon="1.48137">
        <ele>259.69</ele>
        <time>2018-01-28T13:41:30.001Z</time>
      </trkpt>
      <trkpt lat="44.4086" lon="1.4815">
        <ele>259.76</ele>
        <time>2018-01-28T13:41:38.001Z</time>
      </trkpt>
      <trkpt lat="44.40861" lon="1.48164">
        <ele>259.77</ele>
        <time>2018-01-28T13:41:46.001Z</time>
      </trkpt>
      <trkpt lat="44.40862" lon="1.48177">
        <ele>259.08</ele>
        <time>2018-01-28T13:41:52.999Z</time>
      </trkpt>
      <trkpt lat="44.40861" lon="1.4819">
        <ele>258.54</ele>
        <time>2018-01-28T13:42:00.999Z</time>
      </trkpt>
      <trkpt lat="44.40862" lon="1.48204">
        <ele>258.05</ele>
        <time>2018-01-28T13:42:07.999Z</time>
      </trkpt>
      <trkpt lat="44.40862" lon="1.48217">
        <ele>257.56</ele>
        <time>2018-01-28T13:42:15.999Z</time>
      </trkpt>
      <trkpt lat="44.40862" lon="1.4823">
        <ele>257.11</ele>
        <time>2018-01-28T13:42:24.999Z</time>
      </trkpt>
      <trkpt lat="44.40862" lon="1.48243">
        <ele>256.78</ele>
        <time>2018-01-28T13:42:31.999Z</time>
      </trkpt>
      <trkpt lat="44.40865" lon="1.48256">
        <ele>256.29</ele>
        <time>2018-01-28T13:42:39.999Z</time>
      </trkpt>
      <trkpt lat="44.40866" lon="1.48269">
        <ele>255.89</ele>
        <time>2018-01-28T13:42:47.001Z</time>
      </trkpt>
      <trkpt lat="44.40868" lon="1.48281">
        <ele>255.06</ele>
        <time>2018-01-28T13:42:56.999Z</time>
      </trkpt>
      <trkpt lat="44.4087" lon="1.48294">
        <ele>254.18</ele>
        <time>2018-01-28T13:43:07.001Z</time>
      </trkpt>
      <trkpt lat="44.40869" lon="1.48307">
        <ele>253.72</ele>
        <time>2018-01-28T13:43:12.999Z</time>
      </trkpt>
      <trkpt lat="44.4087" lon="1.4832">
        <ele>253.2</ele>
        <time>2018-01-28T13:43:22.001Z</time>
      </trkpt>
      <trkpt lat="44.40872" lon="1.48333">
        <ele>253.05</ele>
        <time>2018-01-28T13:43:30.001Z</time>
      </trkpt>
      <trkpt lat="44.40872" lon="1.48348">
        <ele>252.85</ele>
        <time>2018-01-28T13:43:38.001Z</time>
      </trkpt>
      <trkpt lat="44.40871" lon="1.48362">
        <ele>252.73</ele>
        <time>2018-01-28T13:43:48.999Z</time>
      </trkpt>
      <trkpt lat="44.40871" lon="1.48375">
        <ele>251.56</ele>
        <time>2018-01-28T13:43:55.999Z</time>
      </trkpt>
      <trkpt lat="44.4087" lon="1.48389">
        <ele>250.74</ele>
        <time>2018-01-28T13:44:02.001Z</time>
      </trkpt>
      <trkpt lat="44.4087" lon="1.48403">
        <ele>250.43</ele>
        <time>2018-01-28T13:44:10.001Z</time>
      </trkpt>
      <trkpt lat="44.40868" lon="1.48416">
        <ele>250.31</ele>
        <time>2018-01-28T13:44:18.001Z</time>
      </trkpt>
      <trkpt lat="44.40869" lon="1.48429">
        <ele>250.12</ele>
        <time>2018-01-28T13:44:24.999Z</time>
      </trkpt>
      <trkpt lat="44.4087" lon="1.48442">
        <ele>249.65</ele>
        <time>2018-01-28T13:44:31.999Z</time>
      </trkpt>
      <trkpt lat="44.4087" lon="1.48455">
        <ele>249.38</ele>
        <time>2018-01-28T13:44:39.001Z</time>
      </trkpt>
      <trkpt lat="44.40868" lon="1.48468">
        <ele>249.19</ele>
        <time>2018-01-28T13:44:44.999Z</time>
      </trkpt>
      <trkpt lat="44.40864" lon="1.4848">
        <ele>249.32</ele>
        <time>2018-01-28T13:44:54.001Z</time>
      </trkpt>
      <trkpt lat="44.40859" lon="1.48491">
        <ele>249.68</ele>
        <time>2018-01-28T13:45:04.999Z</time>
      </trkpt>
      <trkpt lat="44.40859" lon="1.48503">
        <ele>250.02</ele>
        <time>2018-01-28T13:45:12.999Z</time>
      </trkpt>
      <trkpt lat="44.40856" lon="1.48515">
        <ele>249.72</ele>
        <time>2018-01-28T13:45:20.999Z</time>
      </trkpt>
      <trkpt lat="44.40853" lon="1.48527">
        <ele>249.77</ele>
        <time>2018-01-28T13:45:27.999Z</time>
      </trkpt>
      <trkpt lat="44.4085" lon="1.4854">
        <ele>249.42</ele>
        <time>2018-01-28T13:45:35.999Z</time>
      </trkpt>
      <trkpt lat="44.40847" lon="1.48552">
        <ele>249.21</ele>
        <time>2018-01-28T13:45:44.999Z</time>
      </trkpt>
      <trkpt lat="44.40844" lon="1.48565">
        <ele>248.6</ele>
        <time>2018-01-28T13:45:51.999Z</time>
      </trkpt>
      <trkpt lat="44.40843" lon="1.48578">
        <ele>247.97</ele>
        <time>2018-01-28T13:46:00.999Z</time>
      </trkpt>
      <trkpt lat="44.40842" lon="1.48591">
        <ele>247.03</ele>
        <time>2018-01-28T13:46:08.999Z</time>
      </trkpt>
      <trkpt lat="44.40841" lon="1.48605">
        <ele>246.73</ele>
        <time>2018-01-28T13:46:15.999Z</time>
      </trkpt>
      <trkpt lat="44.40839" lon="1.48617">
        <ele>246.58</ele>
        <time>2018-01-28T13:46:22.001Z</time>
      </trkpt>
      <trkpt lat="44.40839" lon="1.48631">
        <ele>246.35</ele>
        <time>2018-01-28T13:46:28.999Z</time>
      </trkpt>
      <trkpt lat="44.40841" lon="1.48645">
        <ele>246.43</ele>
        <time>2018-01-28T13:46:36.999Z</time>
      </trkpt>
      <trkpt lat="44.40844" lon="1.48658">
        <ele>246.25</ele>
        <time>2018-01-28T13:46:46.001Z</time>
      </trkpt>
      <trkpt lat="44.40846" lon="1.4867">
        <ele>246.14</ele>
        <time>2018-01-28T13:46:54.001Z</time>
      </trkpt>
      <trkpt lat="44.40851" lon="1.48681">
        <ele>246.48</ele>
        <time>2018-01-28T13:47:02.001Z</time>
      </trkpt>
      <trkpt lat="44.40857" lon="1.48693">
        <ele>246.51</ele>
        <time>2018-01-28T13:47:08.999Z</time>
      </trkpt>
      <trkpt lat="44.40861" lon="1.48705">
        <ele>246.22</ele>
        <time>2018-01-28T13:47:15.999Z</time>
      </trkpt>
      <trkpt lat="44.40867" lon="1.48715">
        <ele>246.11</ele>
        <time>2018-01-28T13:47:24.999Z</time>
      </trkpt>
      <trkpt lat="44.40873" lon="1.48726">
        <ele>245.68</ele>
        <time>2018-01-28T13:47:31.999Z</time>
      </trkpt>
      <trkpt lat="44.40879" lon="1.48736">
        <ele>245.51</ele>
        <time>2018-01-28T13:47:40.999Z</time>
      </trkpt>
      <trkpt lat="44.40885" lon="1.48746">
        <ele>244.86</ele>
        <time>2018-01-28T13:47:48.999Z</time>
      </trkpt>
      <trkpt lat="44.4089" lon="1.48758">
        <ele>244.65</ele>
        <time>2018-01-28T13:47:55.999Z</time>
      </trkpt>
      <trkpt lat="44.40896" lon="1.48768">
        <ele>244.44</ele>
        <time>2018-01-28T13:48:04.999Z</time>
      </trkpt>
      <trkpt lat="44.409" lon="1.48779">
        <ele>243.89</ele>
        <time>2018-01-28T13:48:11.999Z</time>
      </trkpt>
      <trkpt lat="44.40904" lon="1.48793">
        <ele>243.85</ele>
        <time>2018-01-28T13:48:18.001Z</time>
      </trkpt>
      <trkpt lat="44.40905" lon="1.48807">
        <ele>243.66</ele>
        <time>2018-01-28T13:48:26.001Z</time>
      </trkpt>
      <trkpt lat="44.40909" lon="1.48821">
        <ele>243.01</ele>
        <time>2018-01-28T13:48:35.999Z</time>
      </trkpt>
      <trkpt lat="44.4091" lon="1.48833">
        <ele>242.55</ele>
        <time>2018-01-28T13:48:42.001Z</time>
      </trkpt>
      <trkpt lat="44.40914" lon="1.48845">
        <ele>242.57</ele>
        <time>2018-01-28T13:48:50.001Z</time>
      </trkpt>
      <trkpt lat="44.40919" lon="1.48858">
        <ele>242.62</ele>
        <time>2018-01-28T13:48:59.001Z</time>
      </trkpt>
      <trkpt lat="44.40923" lon="1.48871">
        <ele>242.54</ele>
        <time>2018-01-28T13:49:07.999Z</time>
      </trkpt>
      <trkpt lat="44.40928" lon="1.48881">
        <ele>242.2</ele>
        <time>2018-01-28T13:49:15.001Z</time>
      </trkpt>
      <trkpt lat="44.40932" lon="1.48893">
        <ele>242.32</ele>
        <time>2018-01-28T13:49:22.001Z</time>
      </trkpt>
      <trkpt lat="44.40936" lon="1.48906">
        <ele>242.38</ele>
        <time>2018-01-28T13:49:28.999Z</time>
      </trkpt>
      <trkpt lat="44.40941" lon="1.48917">
        <ele>242.46</ele>
        <time>2018-01-28T13:49:39.001Z</time>
      </trkpt>
      <trkpt lat="44.40944" lon="1.48929">
        <ele>242.43</ele>
        <time>2018-01-28T13:49:46.001Z</time>
      </trkpt>
      <trkpt lat="44.40948" lon="1.48942">
        <ele>242.5</ele>
        <time>2018-01-28T13:49:55.001Z</time>
      </trkpt>
      <trkpt lat="44.40952" lon="1.48954">
        <ele>242.24</ele>
        <time>2018-01-28T13:50:03.001Z</time>
      </trkpt>
      <trkpt lat="44.4095" lon="1.48969">
        <ele>241.87</ele>
        <time>2018-01-28T13:50:11.001Z</time>
      </trkpt>
      <trkpt lat="44.40951" lon="1.48983">
        <ele>241.19</ele>
        <time>2018-01-28T13:50:20.999Z</time>
      </trkpt>
      <trkpt lat="44.4095" lon="1.48998">
        <ele>240.53</ele>
        <time>2018-01-28T13:50:28.999Z</time>
      </trkpt>
      <trkpt lat="44.4095" lon="1.49012">
        <ele>240.6</ele>
        <time>2018-01-28T13:50:36.999Z</time>
      </trkpt>
      <trkpt lat="44.4095" lon="1.49025">
        <ele>240.59</ele>
        <time>2018-01-28T13:50:43.999Z</time>
      </trkpt>
      <trkpt lat="44.40952" lon="1.49037">
        <ele>239.96</ele>
        <time>2018-01-28T13:50:51.999Z</time>
      </trkpt>
      <trkpt lat="44.40953" lon="1.49051">
        <ele>239.64</ele>
        <time>2018-01-28T13:51:00.999Z</time>
      </trkpt>
      <trkpt lat="44.40953" lon="1.49064">
        <ele>239.81</ele>
        <time>2018-01-28T13:51:10.001Z</time>
      </trkpt>
      <trkpt lat="44.4095" lon="1.49076">
        <ele>239.89</ele>
        <time>2018-01-28T13:51:15.999Z</time>
      </trkpt>
      <trkpt lat="44.40944" lon="1.49085">
        <ele>240.42</ele>
        <time>2018-01-28T13:51:28.999Z</time>
      </trkpt>
      <trkpt lat="44.40936" lon="1.4909">
        <ele>240.62</ele>
        <time>2018-01-28T13:51:36.999Z</time>
      </trkpt>
      <trkpt lat="44.40929" lon="1.49098">
        <ele>239.76</ele>
        <time>2018-01-28T13:51:46.001Z</time>
      </trkpt>
      <trkpt lat="44.40921" lon="1.49106">
        <ele>238.89</ele>
        <time>2018-01-28T13:51:54.001Z</time>
      </trkpt>
      <trkpt lat="44.40913" lon="1.49115">
        <ele>238.71</ele>
        <time>2018-01-28T13:52:03.001Z</time>
      </trkpt>
      <trkpt lat="44.40904" lon="1.49115">
        <ele>238.37</ele>
        <time>2018-01-28T13:52:10.001Z</time>
      </trkpt>
      <trkpt lat="44.40895" lon="1.49109">
        <ele>237.83</ele>
        <time>2018-01-28T13:52:19.001Z</time>
      </trkpt>
      <trkpt lat="44.40886" lon="1.49104">
        <ele>237.56</ele>
        <time>2018-01-28T13:52:27.001Z</time>
      </trkpt>
      <trkpt lat="44.40879" lon="1.49097">
        <ele>236.88</ele>
        <time>2018-01-28T13:52:35.999Z</time>
      </trkpt>
      <trkpt lat="44.4087" lon="1.49088">
        <ele>236.82</ele>
        <time>2018-01-28T13:52:43.999Z</time>
      </trkpt>
      <trkpt lat="44.40863" lon="1.49077">
        <ele>236.51</ele>
        <time>2018-01-28T13:52:51.999Z</time>
      </trkpt>
      <trkpt lat="44.40857" lon="1.49066">
        <ele>236.04</ele>
        <time>2018-01-28T13:53:00.999Z</time>
      </trkpt>
      <trkpt lat="44.40852" lon="1.49055">
        <ele>235.86</ele>
        <time>2018-01-28T13:53:08.999Z</time>
      </trkpt>
      <trkpt lat="44.40848" lon="1.49042">
        <ele>235.71</ele>
        <time>2018-01-28T13:53:16.999Z</time>
      </trkpt>
      <trkpt lat="44.4084" lon="1.49032">
        <ele>235.61</ele>
        <time>2018-01-28T13:53:24.999Z</time>
      </trkpt>
      <trkpt lat="44.40836" lon="1.49021">
        <ele>235.95</ele>
        <time>2018-01-28T13:53:34.001Z</time>
      </trkpt>
      <trkpt lat="44.40829" lon="1.49012">
        <ele>235.86</ele>
        <time>2018-01-28T13:53:40.999Z</time>
      </trkpt>
      <trkpt lat="44.40824" lon="1.49001">
        <ele>235.71</ele>
        <time>2018-01-28T13:53:48.999Z</time>
      </trkpt>
      <trkpt lat="44.40817" lon="1.48993">
        <ele>235.9</ele>
        <time>2018-01-28T13:53:55.999Z</time>
      </trkpt>
      <trkpt lat="44.40809" lon="1.48985">
        <ele>237.65</ele>
        <time>2018-01-28T13:54:29.999Z</time>
      </trkpt>
      <trkpt lat="44.408" lon="1.48981">
        <ele>237.24</ele>
        <time>2018-01-28T13:54:53.001Z</time>
      </trkpt>
      <trkpt lat="44.40791" lon="1.48976">
        <ele>234.57</ele>
        <time>2018-01-28T13:55:41.999Z</time>
      </trkpt>
      <trkpt lat="44.40783" lon="1.4897">
        <ele>234.67</ele>
        <time>2018-01-28T13:55:56.001Z</time>
      </trkpt>
      <trkpt lat="44.40774" lon="1.48965">
        <ele>234.5</ele>
        <time>2018-01-28T13:56:04.001Z</time>
      </trkpt>
      <trkpt lat="44.40765" lon="1.48959">
        <ele>234.78</ele>
        <time>2018-01-28T13:56:13.999Z</time>
      </trkpt>
      <trkpt lat="44.40756" lon="1.48952">
        <ele>235.93</ele>
        <time>2018-01-28T13:56:21.999Z</time>
      </trkpt>
      <trkpt lat="44.40747" lon="1.48952">
        <ele>237.15</ele>
        <time>2018-01-28T13:56:34.999Z</time>
      </trkpt>
      <trkpt lat="44.40738" lon="1.48948">
        <ele>237.06</ele>
        <time>2018-01-28T13:56:45.999Z</time>
      </trkpt>
      <trkpt lat="44.40729" lon="1.48946">
        <ele>237.49</ele>
        <time>2018-01-28T13:56:53.999Z</time>
      </trkpt>
      <trkpt lat="44.40719" lon="1.48945">
        <ele>237.7</ele>
        <time>2018-01-28T13:57:04.001Z</time>
      </trkpt>
      <trkpt lat="44.4071" lon="1.4895">
        <ele>237.67</ele>
        <time>2018-01-28T13:57:10.999Z</time>
      </trkpt>
      <trkpt lat="44.40699" lon="1.48951">
        <ele>237.69</ele>
        <time>2018-01-28T13:57:18.999Z</time>
      </trkpt>
      <trkpt lat="44.40689" lon="1.48949">
        <ele>236.57</ele>
        <time>2018-01-28T13:57:29.001Z</time>
      </trkpt>
      <trkpt lat="44.40679" lon="1.48949">
        <ele>235.71</ele>
        <time>2018-01-28T13:57:40.001Z</time>
      </trkpt>
      <trkpt lat="44.4067" lon="1.48952">
        <ele>235.89</ele>
        <time>2018-01-28T13:57:45.999Z</time>
      </trkpt>
      <trkpt lat="44.40661" lon="1.48954">
        <ele>235.31</ele>
        <time>2018-01-28T13:57:57.001Z</time>
      </trkpt>
      <trkpt lat="44.40651" lon="1.4896">
        <ele>236.29</ele>
        <time>2018-01-28T13:58:05.999Z</time>
      </trkpt>
      <trkpt lat="44.40642" lon="1.48955">
        <ele>237.5</ele>
        <time>2018-01-28T13:58:14.999Z</time>
      </trkpt>
      <trkpt lat="44.40633" lon="1.48957">
        <ele>238.88</ele>
        <time>2018-01-28T13:58:33.999Z</time>
      </trkpt>
      <trkpt lat="44.40624" lon="1.48962">
        <ele>241.16</ele>
        <time>2018-01-28T13:58:45.001Z</time>
      </trkpt>
      <trkpt lat="44.40615" lon="1.48968">
        <ele>242.69</ele>
        <time>2018-01-28T13:58:53.999Z</time>
      </trkpt>
      <trkpt lat="44.40623" lon="1.48974">
        <ele>246.58</ele>
        <time>2018-01-28T14:00:34.999Z</time>
      </trkpt>
      <trkpt lat="44.40632" lon="1.4897">
        <ele>246.8</ele>
        <time>2018-01-28T14:00:45.001Z</time>
      </trkpt>
      <trkpt lat="44.4064" lon="1.48963">
        <ele>245.46</ele>
        <time>2018-01-28T14:01:04.001Z</time>
      </trkpt>
      <trkpt lat="44.4064" lon="1.4895">
        <ele>240.1</ele>
        <time>2018-01-28T14:03:36.999Z</time>
      </trkpt>
      <trkpt lat="44.40633" lon="1.48941">
        <ele>240.01</ele>
        <time>2018-01-28T14:03:44.999Z</time>
      </trkpt>
      <trkpt lat="44.40626" lon="1.48931">
        <ele>239.9</ele>
        <time>2018-01-28T14:03:55.999Z</time>
      </trkpt>
      <trkpt lat="44.40621" lon="1.48919">
        <ele>239.83</ele>
        <time>2018-01-28T14:04:03.001Z</time>
      </trkpt>
      <trkpt lat="44.40616" lon="1.48906">
        <ele>239.8</ele>
        <time>2018-01-28T14:04:14.001Z</time>
      </trkpt>
      <trkpt lat="44.40611" lon="1.48895">
        <ele>239.87</ele>
        <time>2018-01-28T14:04:23.001Z</time>
      </trkpt>
      <trkpt lat="44.40605" lon="1.48884">
        <ele>240.11</ele>
        <time>2018-01-28T14:04:32.999Z</time>
      </trkpt>
      <trkpt lat="44.40595" lon="1.48883">
        <ele>240.45</ele>
        <time>2018-01-28T14:04:42.001Z</time>
      </trkpt>
      <trkpt lat="44.40586" lon="1.4888">
        <ele>240.68</ele>
        <time>2018-01-28T14:04:50.001Z</time>
      </trkpt>
      <trkpt lat="44.40577" lon="1.48875">
        <ele>241.48</ele>
        <time>2018-01-28T14:04:58.001Z</time>
      </trkpt>
      <trkpt lat="44.40568" lon="1.48868">
        <ele>242.53</ele>
        <time>2018-01-28T14:05:07.001Z</time>
      </trkpt>
      <trkpt lat="44.4056" lon="1.48863">
        <ele>243.28</ele>
        <time>2018-01-28T14:05:15.999Z</time>
      </trkpt>
      <trkpt lat="44.40552" lon="1.48855">
        <ele>244.91</ele>
        <time>2018-01-28T14:05:26.001Z</time>
      </trkpt>
      <trkpt lat="44.40545" lon="1.48845">
        <ele>246.54</ele>
        <time>2018-01-28T14:05:35.999Z</time>
      </trkpt>
      <trkpt lat="44.40537" lon="1.48839">
        <ele>247.41</ele>
        <time>2018-01-28T14:05:43.001Z</time>
      </trkpt>
      <trkpt lat="44.40529" lon="1.48831">
        <ele>249.12</ele>
        <time>2018-01-28T14:05:52.999Z</time>
      </trkpt>
      <trkpt lat="44.4052" lon="1.48824">
        <ele>250.18</ele>
        <time>2018-01-28T14:05:59.999Z</time>
      </trkpt>
      <trkpt lat="44.40512" lon="1.48818">
        <ele>252.15</ele>
        <time>2018-01-28T14:06:10.001Z</time>
      </trkpt>
      <trkpt lat="44.40503" lon="1.48815">
        <ele>253.99</ele>
        <time>2018-01-28T14:06:19.999Z</time>
      </trkpt>
      <trkpt lat="44.40495" lon="1.4881">
        <ele>255.92</ele>
        <time>2018-01-28T14:06:30.001Z</time>
      </trkpt>
      <trkpt lat="44.40486" lon="1.48802">
        <ele>258.15</ele>
        <time>2018-01-28T14:06:43.001Z</time>
      </trkpt>
      <trkpt lat="44.40477" lon="1.48797">
        <ele>259.2</ele>
        <time>2018-01-28T14:06:51.999Z</time>
      </trkpt>
      <trkpt lat="44.40469" lon="1.48787">
        <ele>259.95</ele>
        <time>2018-01-28T14:07:00.999Z</time>
      </trkpt>
      <trkpt lat="44.40461" lon="1.48779">
        <ele>261.17</ele>
        <time>2018-01-28T14:07:08.999Z</time>
      </trkpt>
      <trkpt lat="44.40453" lon="1.48772">
        <ele>261.94</ele>
        <time>2018-01-28T14:07:16.999Z</time>
      </trkpt>
      <trkpt lat="44.40443" lon="1.48767">
        <ele>262.67</ele>
        <time>2018-01-28T14:07:26.001Z</time>
      </trkpt>
      <trkpt lat="44.40434" lon="1.48763">
        <ele>264.07</ele>
        <time>2018-01-28T14:07:34.001Z</time>
      </trkpt>
      <trkpt lat="44.40426" lon="1.48757">
        <ele>265.55</ele>
        <time>2018-01-28T14:07:43.001Z</time>
      </trkpt>
      <trkpt lat="44.40418" lon="1.48749">
        <ele>266.34</ele>
        <time>2018-01-28T14:07:51.999Z</time>
      </trkpt>
      <trkpt lat="44.4041" lon="1.48743">
        <ele>267.1</ele>
        <time>2018-01-28T14:07:59.001Z</time>
      </trkpt>
      <trkpt lat="44.404" lon="1.48738">
        <ele>268.36</ele>
        <time>2018-01-28T14:08:08.999Z</time>
      </trkpt>
      <trkpt lat="44.40393" lon="1.48728">
        <ele>269.1</ele>
        <time>2018-01-28T14:08:19.001Z</time>
      </trkpt>
      <trkpt lat="44.40384" lon="1.48724">
        <ele>269.78</ele>
        <time>2018-01-28T14:08:26.001Z</time>
      </trkpt>
      <trkpt lat="44.40376" lon="1.48718">
        <ele>270.82</ele>
        <time>2018-01-28T14:08:35.001Z</time>
      </trkpt>
      <trkpt lat="44.40366" lon="1.4871">
        <ele>271.52</ele>
        <time>2018-01-28T14:08:42.001Z</time>
      </trkpt>
      <trkpt lat="44.40358" lon="1.48703">
        <ele>272.84</ele>
        <time>2018-01-28T14:08:51.001Z</time>
      </trkpt>
      <trkpt lat="44.40349" lon="1.48698">
        <ele>273.69</ele>
        <time>2018-01-28T14:08:59.999Z</time>
      </trkpt>
      <trkpt lat="44.4034" lon="1.48693">
        <ele>274.4</ele>
        <time>2018-01-28T14:09:07.999Z</time>
      </trkpt>
      <trkpt lat="44.40332" lon="1.48686">
        <ele>275.18</ele>
        <time>2018-01-28T14:09:16.999Z</time>
      </trkpt>
      <trkpt lat="44.40324" lon="1.48681">
        <ele>276.02</ele>
        <time>2018-01-28T14:09:22.001Z</time>
      </trkpt>
      <trkpt lat="44.40314" lon="1.48676">
        <ele>277.05</ele>
        <time>2018-01-28T14:09:31.999Z</time>
      </trkpt>
      <trkpt lat="44.40305" lon="1.48673">
        <ele>278.17</ele>
        <time>2018-01-28T14:09:39.001Z</time>
      </trkpt>
      <trkpt lat="44.40295" lon="1.48672">
        <ele>279.78</ele>
        <time>2018-01-28T14:09:47.999Z</time>
      </trkpt>
      <trkpt lat="44.40286" lon="1.48671">
        <ele>281.34</ele>
        <time>2018-01-28T14:09:55.999Z</time>
      </trkpt>
      <trkpt lat="44.40276" lon="1.48668">
        <ele>283.45</ele>
        <time>2018-01-28T14:10:23.001Z</time>
      </trkpt>
      <trkpt lat="44.40268" lon="1.48668">
        <ele>284.33</ele>
        <time>2018-01-28T14:10:30.001Z</time>
      </trkpt>
      <trkpt lat="44.40257" lon="1.48668">
        <ele>285.42</ele>
        <time>2018-01-28T14:10:38.001Z</time>
      </trkpt>
      <trkpt lat="44.40248" lon="1.48666">
        <ele>285.85</ele>
        <time>2018-01-28T14:10:44.999Z</time>
      </trkpt>
      <trkpt lat="44.40237" lon="1.48665">
        <ele>286.3</ele>
        <time>2018-01-28T14:10:51.999Z</time>
      </trkpt>
      <trkpt lat="44.40228" lon="1.48667">
        <ele>287.38</ele>
        <time>2018-01-28T14:10:59.999Z</time>
      </trkpt>
      <trkpt lat="44.40219" lon="1.48666">
        <ele>288.24</ele>
        <time>2018-01-28T14:11:07.999Z</time>
      </trkpt>
      <trkpt lat="44.40209" lon="1.48664">
        <ele>289.23</ele>
        <time>2018-01-28T14:11:15.001Z</time>
      </trkpt>
      <trkpt lat="44.40199" lon="1.48662">
        <ele>290.05</ele>
        <time>2018-01-28T14:11:23.001Z</time>
      </trkpt>
      <trkpt lat="44.40189" lon="1.4866">
        <ele>290.72</ele>
        <time>2018-01-28T14:11:30.001Z</time>
      </trkpt>
      <trkpt lat="44.40179" lon="1.48659">
        <ele>291.84</ele>
        <time>2018-01-28T14:11:40.999Z</time>
      </trkpt>
      <trkpt lat="44.4017" lon="1.4866">
        <ele>292.23</ele>
        <time>2018-01-28T14:11:46.001Z</time>
      </trkpt>
      <trkpt lat="44.40161" lon="1.48662">
        <ele>293.46</ele>
        <time>2018-01-28T14:11:54.001Z</time>
      </trkpt>
      <trkpt lat="44.40151" lon="1.48664">
        <ele>294.58</ele>
        <time>2018-01-28T14:12:03.001Z</time>
      </trkpt>
      <trkpt lat="44.40141" lon="1.48665">
        <ele>295.6</ele>
        <time>2018-01-28T14:12:08.999Z</time>
      </trkpt>
      <trkpt lat="44.40132" lon="1.48665">
        <ele>296.93</ele>
        <time>2018-01-28T14:12:16.999Z</time>
      </trkpt>
      <trkpt lat="44.40123" lon="1.48668">
        <ele>298.27</ele>
        <time>2018-01-28T14:12:23.999Z</time>
      </trkpt>
      <trkpt lat="44.40112" lon="1.48669">
        <ele>299.51</ele>
        <time>2018-01-28T14:12:34.001Z</time>
      </trkpt>
      <trkpt lat="44.40102" lon="1.48667">
        <ele>300.47</ele>
        <time>2018-01-28T14:12:40.999Z</time>
      </trkpt>
      <trkpt lat="44.40093" lon="1.48666">
        <ele>301.19</ele>
        <time>2018-01-28T14:12:47.001Z</time>
      </trkpt>
      <trkpt lat="44.40083" lon="1.48666">
        <ele>302.07</ele>
        <time>2018-01-28T14:12:52.999Z</time>
      </trkpt>
      <trkpt lat="44.40074" lon="1.4867">
        <ele>303.58</ele>
        <time>2018-01-28T14:13:00.999Z</time>
      </trkpt>
      <trkpt lat="44.40066" lon="1.48678">
        <ele>304.07</ele>
        <time>2018-01-28T14:13:08.999Z</time>
      </trkpt>
      <trkpt lat="44.40058" lon="1.48683">
        <ele>304.34</ele>
        <time>2018-01-28T14:13:16.999Z</time>
      </trkpt>
      <trkpt lat="44.40048" lon="1.48688">
        <ele>304.96</ele>
        <time>2018-01-28T14:13:24.999Z</time>
      </trkpt>
      <trkpt lat="44.40038" lon="1.48689">
        <ele>305.63</ele>
        <time>2018-01-28T14:13:31.999Z</time>
      </trkpt>
      <trkpt lat="44.40028" lon="1.48693">
        <ele>306.93</ele>
        <time>2018-01-28T14:13:39.999Z</time>
      </trkpt>
      <trkpt lat="44.40019" lon="1.48697">
        <ele>308.66</ele>
        <time>2018-01-28T14:13:48.999Z</time>
      </trkpt>
      <trkpt lat="44.40011" lon="1.48702">
        <ele>309.45</ele>
        <time>2018-01-28T14:13:55.999Z</time>
      </trkpt>
      <trkpt lat="44.40002" lon="1.48704">
        <ele>310.5</ele>
        <time>2018-01-28T14:14:04.999Z</time>
      </trkpt>
      <trkpt lat="44.39992" lon="1.48707">
        <ele>311.1</ele>
        <time>2018-01-28T14:14:11.001Z</time>
      </trkpt>
      <trkpt lat="44.39982" lon="1.48708">
        <ele>311.99</ele>
        <time>2018-01-28T14:14:18.001Z</time>
      </trkpt>
      <trkpt lat="44.39973" lon="1.48713">
        <ele>312.33</ele>
        <time>2018-01-28T14:14:27.001Z</time>
      </trkpt>
      <trkpt lat="44.39964" lon="1.48717">
        <ele>313.11</ele>
        <time>2018-01-28T14:14:34.001Z</time>
      </trkpt>
      <trkpt lat="44.39954" lon="1.48721">
        <ele>314.05</ele>
        <time>2018-01-28T14:14:40.999Z</time>
      </trkpt>
      <trkpt lat="44.39945" lon="1.48723">
        <ele>314.93</ele>
        <time>2018-01-28T14:14:47.999Z</time>
      </trkpt>
      <trkpt lat="44.39936" lon="1.48725">
        <ele>315.34</ele>
        <time>2018-01-28T14:14:52.999Z</time>
      </trkpt>
      <trkpt lat="44.39927" lon="1.4873">
        <ele>316.31</ele>
        <time>2018-01-28T14:15:00.999Z</time>
      </trkpt>
      <trkpt lat="44.39922" lon="1.48741">
        <ele>317.83</ele>
        <time>2018-01-28T14:15:21.001Z</time>
      </trkpt>
      <trkpt lat="44.39912" lon="1.4874">
        <ele>323.51</ele>
        <time>2018-01-28T14:22:17.999Z</time>
      </trkpt>
      <trkpt lat="44.39901" lon="1.48742">
        <ele>323.59</ele>
        <time>2018-01-28T14:22:25.999Z</time>
      </trkpt>
      <trkpt lat="44.39892" lon="1.48745">
        <ele>323.34</ele>
        <time>2018-01-28T14:22:34.999Z</time>
      </trkpt>
      <trkpt lat="44.39883" lon="1.48748">
        <ele>323.21</ele>
        <time>2018-01-28T14:22:44.001Z</time>
      </trkpt>
      <trkpt lat="44.39873" lon="1.48749">
        <ele>322.93</ele>
        <time>2018-01-28T14:22:50.999Z</time>
      </trkpt>
      <trkpt lat="44.39864" lon="1.48751">
        <ele>323.16</ele>
        <time>2018-01-28T14:22:57.999Z</time>
      </trkpt>
      <trkpt lat="44.39854" lon="1.48754">
        <ele>322.82</ele>
        <time>2018-01-28T14:23:08.001Z</time>
      </trkpt>
      <trkpt lat="44.39844" lon="1.48757">
        <ele>322.56</ele>
        <time>2018-01-28T14:23:16.001Z</time>
      </trkpt>
      <trkpt lat="44.39834" lon="1.4876">
        <ele>321.95</ele>
        <time>2018-01-28T14:23:25.001Z</time>
      </trkpt>
      <trkpt lat="44.39824" lon="1.48763">
        <ele>321.24</ele>
        <time>2018-01-28T14:23:34.999Z</time>
      </trkpt>
      <trkpt lat="44.39815" lon="1.48767">
        <ele>321.67</ele>
        <time>2018-01-28T14:23:41.999Z</time>
      </trkpt>
      <trkpt lat="44.39807" lon="1.48773">
        <ele>322.22</ele>
        <time>2018-01-28T14:23:55.001Z</time>
      </trkpt>
      <trkpt lat="44.39799" lon="1.4878">
        <ele>321.66</ele>
        <time>2018-01-28T14:24:03.999Z</time>
      </trkpt>
      <trkpt lat="44.3979" lon="1.48786">
        <ele>321.51</ele>
        <time>2018-01-28T14:24:11.999Z</time>
      </trkpt>
      <trkpt lat="44.39783" lon="1.48794">
        <ele>321.72</ele>
        <time>2018-01-28T14:24:19.999Z</time>
      </trkpt>
      <trkpt lat="44.39774" lon="1.488">
        <ele>321.5</ele>
        <time>2018-01-28T14:24:27.999Z</time>
      </trkpt>
      <trkpt lat="44.39767" lon="1.48808">
        <ele>321.22</ele>
        <time>2018-01-28T14:24:36.999Z</time>
      </trkpt>
      <trkpt lat="44.39759" lon="1.48815">
        <ele>321.23</ele>
        <time>2018-01-28T14:24:43.999Z</time>
      </trkpt>
      <trkpt lat="44.3975" lon="1.48821">
        <ele>321.71</ele>
        <time>2018-01-28T14:24:55.001Z</time>
      </trkpt>
      <trkpt lat="44.3974" lon="1.48823">
        <ele>322.1</ele>
        <time>2018-01-28T14:25:02.001Z</time>
      </trkpt>
      <trkpt lat="44.39731" lon="1.48827">
        <ele>322.07</ele>
        <time>2018-01-28T14:25:11.001Z</time>
      </trkpt>
      <trkpt lat="44.39721" lon="1.48829">
        <ele>322.11</ele>
        <time>2018-01-28T14:25:19.001Z</time>
      </trkpt>
      <trkpt lat="44.39712" lon="1.48825">
        <ele>321.01</ele>
        <time>2018-01-28T14:25:35.999Z</time>
      </trkpt>
      <trkpt lat="44.39703" lon="1.48826">
        <ele>320.9</ele>
        <time>2018-01-28T14:25:44.999Z</time>
      </trkpt>
      <trkpt lat="44.39694" lon="1.48828">
        <ele>321</ele>
        <time>2018-01-28T14:25:54.001Z</time>
      </trkpt>
      <trkpt lat="44.39684" lon="1.48829">
        <ele>320.69</ele>
        <time>2018-01-28T14:26:03.999Z</time>
      </trkpt>
      <trkpt lat="44.39674" lon="1.48832">
        <ele>320.82</ele>
        <time>2018-01-28T14:26:11.001Z</time>
      </trkpt>
      <trkpt lat="44.39665" lon="1.48837">
        <ele>320.97</ele>
        <time>2018-01-28T14:26:18.001Z</time>
      </trkpt>
      <trkpt lat="44.39656" lon="1.48834">
        <ele>320.03</ele>
        <time>2018-01-28T14:26:28.999Z</time>
      </trkpt>
      <trkpt lat="44.39652" lon="1.48845">
        <ele>319.07</ele>
        <time>2018-01-28T14:26:36.999Z</time>
      </trkpt>
      <trkpt lat="44.39651" lon="1.48859">
        <ele>318.18</ele>
        <time>2018-01-28T14:26:47.999Z</time>
      </trkpt>
      <trkpt lat="44.39642" lon="1.48863">
        <ele>318.41</ele>
        <time>2018-01-28T14:26:56.999Z</time>
      </trkpt>
      <trkpt lat="44.39633" lon="1.48863">
        <ele>318.13</ele>
        <time>2018-01-28T14:27:04.999Z</time>
      </trkpt>
      <trkpt lat="44.39623" lon="1.48865">
        <ele>318.43</ele>
        <time>2018-01-28T14:27:12.999Z</time>
      </trkpt>
      <trkpt lat="44.39613" lon="1.48866">
        <ele>318.96</ele>
        <time>2018-01-28T14:27:41.001Z</time>
      </trkpt>
      <trkpt lat="44.39604" lon="1.48865">
        <ele>319.87</ele>
        <time>2018-01-28T14:27:50.999Z</time>
      </trkpt>
      <trkpt lat="44.39595" lon="1.48863">
        <ele>320.7</ele>
        <time>2018-01-28T14:28:00.001Z</time>
      </trkpt>
      <trkpt lat="44.39585" lon="1.4886">
        <ele>321.37</ele>
        <time>2018-01-28T14:28:08.001Z</time>
      </trkpt>
      <trkpt lat="44.39575" lon="1.48857">
        <ele>321.8</ele>
        <time>2018-01-28T14:28:14.999Z</time>
      </trkpt>
      <trkpt lat="44.39566" lon="1.48854">
        <ele>322.15</ele>
        <time>2018-01-28T14:28:25.999Z</time>
      </trkpt>
      <trkpt lat="44.3956" lon="1.48845">
        <ele>321.1</ele>
        <time>2018-01-28T14:28:48.999Z</time>
      </trkpt>
      <trkpt lat="44.39551" lon="1.4884">
        <ele>321.49</ele>
        <time>2018-01-28T14:28:55.999Z</time>
      </trkpt>
      <trkpt lat="44.39543" lon="1.48834">
        <ele>321.79</ele>
        <time>2018-01-28T14:29:03.999Z</time>
      </trkpt>
      <trkpt lat="44.39534" lon="1.48828">
        <ele>322.33</ele>
        <time>2018-01-28T14:29:11.001Z</time>
      </trkpt>
      <trkpt lat="44.39526" lon="1.48822">
        <ele>322.58</ele>
        <time>2018-01-28T14:29:19.001Z</time>
      </trkpt>
      <trkpt lat="44.39518" lon="1.48815">
        <ele>322.67</ele>
        <time>2018-01-28T14:29:27.999Z</time>
      </trkpt>
      <trkpt lat="44.3951" lon="1.48806">
        <ele>322.32</ele>
        <time>2018-01-28T14:29:35.999Z</time>
      </trkpt>
      <trkpt lat="44.39502" lon="1.48798">
        <ele>322.35</ele>
        <time>2018-01-28T14:29:44.999Z</time>
      </trkpt>
      <trkpt lat="44.39495" lon="1.48789">
        <ele>322.2</ele>
        <time>2018-01-28T14:29:54.001Z</time>
      </trkpt>
      <trkpt lat="44.39488" lon="1.48781">
        <ele>322.14</ele>
        <time>2018-01-28T14:29:59.999Z</time>
      </trkpt>
      <trkpt lat="44.3948" lon="1.48773">
        <ele>321.8</ele>
        <time>2018-01-28T14:30:10.001Z</time>
      </trkpt>
      <trkpt lat="44.39471" lon="1.48767">
        <ele>321.84</ele>
        <time>2018-01-28T14:30:15.999Z</time>
      </trkpt>
      <trkpt lat="44.39463" lon="1.48758">
        <ele>321.88</ele>
        <time>2018-01-28T14:30:26.001Z</time>
      </trkpt>
      <trkpt lat="44.39455" lon="1.48753">
        <ele>322.49</ele>
        <time>2018-01-28T14:30:32.999Z</time>
      </trkpt>
      <trkpt lat="44.39446" lon="1.48748">
        <ele>322.87</ele>
        <time>2018-01-28T14:30:42.001Z</time>
      </trkpt>
      <trkpt lat="44.39438" lon="1.48741">
        <ele>323.37</ele>
        <time>2018-01-28T14:30:48.999Z</time>
      </trkpt>
      <trkpt lat="44.3943" lon="1.48736">
        <ele>324.83</ele>
        <time>2018-01-28T14:30:59.999Z</time>
      </trkpt>
      <trkpt lat="44.39423" lon="1.48726">
        <ele>325.15</ele>
        <time>2018-01-28T14:31:07.001Z</time>
      </trkpt>
      <trkpt lat="44.39415" lon="1.48718">
        <ele>325.5</ele>
        <time>2018-01-28T14:31:15.999Z</time>
      </trkpt>
      <trkpt lat="44.39407" lon="1.48711">
        <ele>325.43</ele>
        <time>2018-01-28T14:31:23.001Z</time>
      </trkpt>
      <trkpt lat="44.39399" lon="1.48704">
        <ele>325.63</ele>
        <time>2018-01-28T14:31:31.999Z</time>
      </trkpt>
      <trkpt lat="44.39392" lon="1.48694">
        <ele>326.39</ele>
        <time>2018-01-28T14:31:39.001Z</time>
      </trkpt>
      <trkpt lat="44.39384" lon="1.48685">
        <ele>326.51</ele>
        <time>2018-01-28T14:31:47.999Z</time>
      </trkpt>
      <trkpt lat="44.39375" lon="1.48679">
        <ele>326.56</ele>
        <time>2018-01-28T14:31:55.999Z</time>
      </trkpt>
      <trkpt lat="44.39365" lon="1.48674">
        <ele>327.25</ele>
        <time>2018-01-28T14:32:03.001Z</time>
      </trkpt>
      <trkpt lat="44.39358" lon="1.48668">
        <ele>328.14</ele>
        <time>2018-01-28T14:32:11.001Z</time>
      </trkpt>
      <trkpt lat="44.39351" lon="1.48659">
        <ele>328.7</ele>
        <time>2018-01-28T14:32:19.999Z</time>
      </trkpt>
      <trkpt lat="44.39343" lon="1.48651">
        <ele>328.77</ele>
        <time>2018-01-28T14:32:27.001Z</time>
      </trkpt>
      <trkpt lat="44.39335" lon="1.48645">
        <ele>329.92</ele>
        <time>2018-01-28T14:32:35.999Z</time>
      </trkpt>
      <trkpt lat="44.39326" lon="1.4864">
        <ele>331.17</ele>
        <time>2018-01-28T14:32:44.999Z</time>
      </trkpt>
      <trkpt lat="44.39318" lon="1.48632">
        <ele>332.5</ele>
        <time>2018-01-28T14:32:54.001Z</time>
      </trkpt>
      <trkpt lat="44.39311" lon="1.48624">
        <ele>332.58</ele>
        <time>2018-01-28T14:33:03.001Z</time>
      </trkpt>
      <trkpt lat="44.39305" lon="1.48613">
        <ele>332.05</ele>
        <time>2018-01-28T14:33:11.001Z</time>
      </trkpt>
      <trkpt lat="44.39297" lon="1.48604">
        <ele>331.83</ele>
        <time>2018-01-28T14:33:19.001Z</time>
      </trkpt>
      <trkpt lat="44.39291" lon="1.48592">
        <ele>331.8</ele>
        <time>2018-01-28T14:33:24.999Z</time>
      </trkpt>
      <trkpt lat="44.39285" lon="1.48582">
        <ele>332.13</ele>
        <time>2018-01-28T14:33:32.999Z</time>
      </trkpt>
      <trkpt lat="44.39279" lon="1.48572">
        <ele>333.24</ele>
        <time>2018-01-28T14:33:44.999Z</time>
      </trkpt>
      <trkpt lat="44.39275" lon="1.4856">
        <ele>333.45</ele>
        <time>2018-01-28T14:33:54.001Z</time>
      </trkpt>
      <trkpt lat="44.39267" lon="1.48552">
        <ele>333.47</ele>
        <time>2018-01-28T14:33:59.999Z</time>
      </trkpt>
      <trkpt lat="44.39261" lon="1.48542">
        <ele>333.84</ele>
        <time>2018-01-28T14:34:06.001Z</time>
      </trkpt>
      <trkpt lat="44.39253" lon="1.48533">
        <ele>333.3</ele>
        <time>2018-01-28T14:34:15.999Z</time>
      </trkpt>
      <trkpt lat="44.39246" lon="1.48525">
        <ele>333.28</ele>
        <time>2018-01-28T14:34:23.999Z</time>
      </trkpt>
      <trkpt lat="44.39239" lon="1.48515">
        <ele>333.73</ele>
        <time>2018-01-28T14:34:31.001Z</time>
      </trkpt>
      <trkpt lat="44.39231" lon="1.48508">
        <ele>333.82</ele>
        <time>2018-01-28T14:34:39.001Z</time>
      </trkpt>
      <trkpt lat="44.39222" lon="1.48503">
        <ele>334.18</ele>
        <time>2018-01-28T14:34:47.001Z</time>
      </trkpt>
      <trkpt lat="44.39213" lon="1.48498">
        <ele>334.64</ele>
        <time>2018-01-28T14:34:55.999Z</time>
      </trkpt>
      <trkpt lat="44.39205" lon="1.48492">
        <ele>335.27</ele>
        <time>2018-01-28T14:35:03.999Z</time>
      </trkpt>
      <trkpt lat="44.39197" lon="1.48485">
        <ele>335.57</ele>
        <time>2018-01-28T14:35:11.999Z</time>
      </trkpt>
      <trkpt lat="44.3919" lon="1.48477">
        <ele>335.64</ele>
        <time>2018-01-28T14:35:19.001Z</time>
      </trkpt>
      <trkpt lat="44.39182" lon="1.4847">
        <ele>335.55</ele>
        <time>2018-01-28T14:35:27.001Z</time>
      </trkpt>
      <trkpt lat="44.39175" lon="1.48461">
        <ele>333.02</ele>
        <time>2018-01-28T14:35:51.999Z</time>
      </trkpt>
      <trkpt lat="44.39169" lon="1.48451">
        <ele>332.69</ele>
        <time>2018-01-28T14:36:03.999Z</time>
      </trkpt>
      <trkpt lat="44.39164" lon="1.48441">
        <ele>332.88</ele>
        <time>2018-01-28T14:36:10.001Z</time>
      </trkpt>
      <trkpt lat="44.39158" lon="1.48431">
        <ele>333.08</ele>
        <time>2018-01-28T14:36:16.999Z</time>
      </trkpt>
      <trkpt lat="44.39154" lon="1.4842">
        <ele>332.94</ele>
        <time>2018-01-28T14:36:27.999Z</time>
      </trkpt>
      <trkpt lat="44.39151" lon="1.48408">
        <ele>332.68</ele>
        <time>2018-01-28T14:36:35.001Z</time>
      </trkpt>
      <trkpt lat="44.39148" lon="1.48396">
        <ele>332.8</ele>
        <time>2018-01-28T14:36:43.999Z</time>
      </trkpt>
      <trkpt lat="44.39144" lon="1.48384">
        <ele>332.52</ele>
        <time>2018-01-28T14:36:52.999Z</time>
      </trkpt>
      <trkpt lat="44.39139" lon="1.48371">
        <ele>332.37</ele>
        <time>2018-01-28T14:37:02.001Z</time>
      </trkpt>
      <trkpt lat="44.39134" lon="1.48359">
        <ele>332.38</ele>
        <time>2018-01-28T14:37:11.001Z</time>
      </trkpt>
      <trkpt lat="44.39129" lon="1.48348">
        <ele>332.73</ele>
        <time>2018-01-28T14:37:19.999Z</time>
      </trkpt>
      <trkpt lat="44.39124" lon="1.48337">
        <ele>332.77</ele>
        <time>2018-01-28T14:37:28.999Z</time>
      </trkpt>
      <trkpt lat="44.39119" lon="1.48323">
        <ele>333.56</ele>
        <time>2018-01-28T14:37:39.001Z</time>
      </trkpt>
      <trkpt lat="44.39116" lon="1.48311">
        <ele>329.89</ele>
        <time>2018-01-28T14:38:39.001Z</time>
      </trkpt>
      <trkpt lat="44.39107" lon="1.48306">
        <ele>333.33</ele>
        <time>2018-01-28T14:40:14.999Z</time>
      </trkpt>
      <trkpt lat="44.39098" lon="1.48303">
        <ele>333.78</ele>
        <time>2018-01-28T14:40:28.001Z</time>
      </trkpt>
      <trkpt lat="44.39089" lon="1.483">
        <ele>334.11</ele>
        <time>2018-01-28T14:40:37.001Z</time>
      </trkpt>
      <trkpt lat="44.39079" lon="1.48294">
        <ele>334.7</ele>
        <time>2018-01-28T14:40:48.001Z</time>
      </trkpt>
      <trkpt lat="44.39071" lon="1.4829">
        <ele>335.87</ele>
        <time>2018-01-28T14:41:01.001Z</time>
      </trkpt>
      <trkpt lat="44.39061" lon="1.48287">
        <ele>336.73</ele>
        <time>2018-01-28T14:41:12.001Z</time>
      </trkpt>
      <trkpt lat="44.39053" lon="1.48283">
        <ele>336.49</ele>
        <time>2018-01-28T14:41:22.999Z</time>
      </trkpt>
      <trkpt lat="44.39044" lon="1.4828">
        <ele>336.44</ele>
        <time>2018-01-28T14:41:29.999Z</time>
      </trkpt>
      <trkpt lat="44.39035" lon="1.48276">
        <ele>336.42</ele>
        <time>2018-01-28T14:41:38.999Z</time>
      </trkpt>
      <trkpt lat="44.39026" lon="1.48271">
        <ele>336.43</ele>
        <time>2018-01-28T14:41:48.001Z</time>
      </trkpt>
      <trkpt lat="44.39017" lon="1.48267">
        <ele>336.16</ele>
        <time>2018-01-28T14:41:57.001Z</time>
      </trkpt>
      <trkpt lat="44.39008" lon="1.48262">
        <ele>335.99</ele>
        <time>2018-01-28T14:42:05.999Z</time>
      </trkpt>
      <trkpt lat="44.38999" lon="1.48258">
        <ele>336.55</ele>
        <time>2018-01-28T14:42:16.001Z</time>
      </trkpt>
      <trkpt lat="44.3899" lon="1.48256">
        <ele>336.32</ele>
        <time>2018-01-28T14:42:24.001Z</time>
      </trkpt>
      <trkpt lat="44.38981" lon="1.48253">
        <ele>335.58</ele>
        <time>2018-01-28T14:42:36.001Z</time>
      </trkpt>
      <trkpt lat="44.38972" lon="1.48254">
        <ele>334.63</ele>
        <time>2018-01-28T14:42:49.001Z</time>
      </trkpt>
      <trkpt lat="44.38963" lon="1.48259">
        <ele>333.56</ele>
        <time>2018-01-28T14:43:01.001Z</time>
      </trkpt>
      <trkpt lat="44.38954" lon="1.48265">
        <ele>331.98</ele>
        <time>2018-01-28T14:43:13.001Z</time>
      </trkpt>
      <trkpt lat="44.38945" lon="1.48268">
        <ele>330.61</ele>
        <time>2018-01-28T14:43:22.999Z</time>
      </trkpt>
      <trkpt lat="44.38936" lon="1.48271">
        <ele>329.69</ele>
        <time>2018-01-28T14:43:30.999Z</time>
      </trkpt>
      <trkpt lat="44.38927" lon="1.48276">
        <ele>328.07</ele>
        <time>2018-01-28T14:43:41.999Z</time>
      </trkpt>
      <trkpt lat="44.38917" lon="1.48279">
        <ele>327.2</ele>
        <time>2018-01-28T14:43:50.999Z</time>
      </trkpt>
      <trkpt lat="44.38909" lon="1.48285">
        <ele>326.15</ele>
        <time>2018-01-28T14:44:01.001Z</time>
      </trkpt>
      <trkpt lat="44.389" lon="1.48288">
        <ele>325.41</ele>
        <time>2018-01-28T14:44:09.001Z</time>
      </trkpt>
      <trkpt lat="44.38891" lon="1.48292">
        <ele>324.38</ele>
        <time>2018-01-28T14:44:17.999Z</time>
      </trkpt>
      <trkpt lat="44.38882" lon="1.48296">
        <ele>323.46</ele>
        <time>2018-01-28T14:44:25.999Z</time>
      </trkpt>
      <trkpt lat="44.38873" lon="1.48301">
        <ele>321.98</ele>
        <time>2018-01-28T14:44:35.999Z</time>
      </trkpt>
      <trkpt lat="44.38864" lon="1.48304">
        <ele>321.54</ele>
        <time>2018-01-28T14:44:45.999Z</time>
      </trkpt>
      <trkpt lat="44.38855" lon="1.48308">
        <ele>320.64</ele>
        <time>2018-01-28T14:44:53.999Z</time>
      </trkpt>
      <trkpt lat="44.38847" lon="1.48313">
        <ele>320.21</ele>
        <time>2018-01-28T14:45:04.999Z</time>
      </trkpt>
      <trkpt lat="44.38837" lon="1.48318">
        <ele>319.34</ele>
        <time>2018-01-28T14:45:15.999Z</time>
      </trkpt>
      <trkpt lat="44.38829" lon="1.48322">
        <ele>318.56</ele>
        <time>2018-01-28T14:45:24.999Z</time>
      </trkpt>
      <trkpt lat="44.3882" lon="1.48326">
        <ele>317.76</ele>
        <time>2018-01-28T14:45:33.999Z</time>
      </trkpt>
      <trkpt lat="44.38812" lon="1.48328">
        <ele>316.87</ele>
        <time>2018-01-28T14:45:42.999Z</time>
      </trkpt>
      <trkpt lat="44.38802" lon="1.48333">
        <ele>315.39</ele>
        <time>2018-01-28T14:45:53.999Z</time>
      </trkpt>
      <trkpt lat="44.38793" lon="1.48337">
        <ele>313.83</ele>
        <time>2018-01-28T14:46:04.999Z</time>
      </trkpt>
      <trkpt lat="44.38785" lon="1.48343">
        <ele>312.72</ele>
        <time>2018-01-28T14:46:15.999Z</time>
      </trkpt>
      <trkpt lat="44.38776" lon="1.48346">
        <ele>311.59</ele>
        <time>2018-01-28T14:46:23.999Z</time>
      </trkpt>
      <trkpt lat="44.38767" lon="1.4835">
        <ele>310.59</ele>
        <time>2018-01-28T14:46:33.999Z</time>
      </trkpt>
      <trkpt lat="44.38759" lon="1.48356">
        <ele>309.67</ele>
        <time>2018-01-28T14:46:45.999Z</time>
      </trkpt>
      <trkpt lat="44.3875" lon="1.48358">
        <ele>308.89</ele>
        <time>2018-01-28T14:46:54.999Z</time>
      </trkpt>
      <trkpt lat="44.3874" lon="1.48361">
        <ele>307.94</ele>
        <time>2018-01-28T14:47:02.999Z</time>
      </trkpt>
      <trkpt lat="44.38731" lon="1.48362">
        <ele>307.71</ele>
        <time>2018-01-28T14:47:11.999Z</time>
      </trkpt>
      <trkpt lat="44.38721" lon="1.48363">
        <ele>307.28</ele>
        <time>2018-01-28T14:47:18.999Z</time>
      </trkpt>
      <trkpt lat="44.38712" lon="1.48363">
        <ele>306.06</ele>
        <time>2018-01-28T14:47:28.999Z</time>
      </trkpt>
      <trkpt lat="44.38701" lon="1.48363">
        <ele>305.51</ele>
        <time>2018-01-28T14:47:37.999Z</time>
      </trkpt>
      <trkpt lat="44.38692" lon="1.48365">
        <ele>305.38</ele>
        <time>2018-01-28T14:47:46.999Z</time>
      </trkpt>
      <trkpt lat="44.38683" lon="1.48363">
        <ele>305.46</ele>
        <time>2018-01-28T14:47:55.999Z</time>
      </trkpt>
      <trkpt lat="44.38674" lon="1.48363">
        <ele>305.08</ele>
        <time>2018-01-28T14:48:04.999Z</time>
      </trkpt>
      <trkpt lat="44.38664" lon="1.48361">
        <ele>304.61</ele>
        <time>2018-01-28T14:48:18.999Z</time>
      </trkpt>
      <trkpt lat="44.38656" lon="1.48362">
        <ele>303.9</ele>
        <time>2018-01-28T14:48:27.999Z</time>
      </trkpt>
      <trkpt lat="44.38646" lon="1.48363">
        <ele>303.3</ele>
        <time>2018-01-28T14:48:36.999Z</time>
      </trkpt>
      <trkpt lat="44.38634" lon="1.48364">
        <ele>302.62</ele>
        <time>2018-01-28T14:48:48.999Z</time>
      </trkpt>
      <trkpt lat="44.38624" lon="1.48365">
        <ele>302.34</ele>
        <time>2018-01-28T14:48:57.999Z</time>
      </trkpt>
      <trkpt lat="44.38614" lon="1.48366">
        <ele>301.98</ele>
        <time>2018-01-28T14:49:07.999Z</time>
      </trkpt>
      <trkpt lat="44.38605" lon="1.48366">
        <ele>301.97</ele>
        <time>2018-01-28T14:49:14.999Z</time>
      </trkpt>
      <trkpt lat="44.38595" lon="1.48367">
        <ele>302.14</ele>
        <time>2018-01-28T14:49:24.999Z</time>
      </trkpt>
      <trkpt lat="44.38585" lon="1.4837">
        <ele>301.99</ele>
        <time>2018-01-28T14:49:33.999Z</time>
      </trkpt>
      <trkpt lat="44.38576" lon="1.48368">
        <ele>301.66</ele>
        <time>2018-01-28T14:49:41.999Z</time>
      </trkpt>
      <trkpt lat="44.38566" lon="1.4837">
        <ele>300.82</ele>
        <time>2018-01-28T14:49:52.999Z</time>
      </trkpt>
      <trkpt lat="44.38557" lon="1.48372">
        <ele>300.73</ele>
        <time>2018-01-28T14:49:58.999Z</time>
      </trkpt>
      <trkpt lat="44.38547" lon="1.48373">
        <ele>300.62</ele>
        <time>2018-01-28T14:50:09.999Z</time>
      </trkpt>
      <trkpt lat="44.38537" lon="1.48374">
        <ele>300.23</ele>
        <time>2018-01-28T14:50:16.999Z</time>
      </trkpt>
      <trkpt lat="44.38527" lon="1.48373">
        <ele>299.85</ele>
        <time>2018-01-28T14:50:24.999Z</time>
      </trkpt>
      <trkpt lat="44.38517" lon="1.48374">
        <ele>299.81</ele>
        <time>2018-01-28T14:50:34.999Z</time>
      </trkpt>
      <trkpt lat="44.38508" lon="1.48376">
        <ele>299.57</ele>
        <time>2018-01-28T14:50:44.999Z</time>
      </trkpt>
      <trkpt lat="44.38498" lon="1.48375">
        <ele>298.81</ele>
        <time>2018-01-28T14:50:54.999Z</time>
      </trkpt>
      <trkpt lat="44.38488" lon="1.48373">
        <ele>298.23</ele>
        <time>2018-01-28T14:51:03.999Z</time>
      </trkpt>
      <trkpt lat="44.38479" lon="1.48369">
        <ele>297.66</ele>
        <time>2018-01-28T14:51:12.999Z</time>
      </trkpt>
      <trkpt lat="44.3847" lon="1.48367">
        <ele>296.68</ele>
        <time>2018-01-28T14:51:20.999Z</time>
      </trkpt>
      <trkpt lat="44.3846" lon="1.4837">
        <ele>296.08</ele>
        <time>2018-01-28T14:51:30.999Z</time>
      </trkpt>
      <trkpt lat="44.38451" lon="1.48376">
        <ele>295.02</ele>
        <time>2018-01-28T14:51:40.999Z</time>
      </trkpt>
      <trkpt lat="44.38443" lon="1.48383">
        <ele>292.81</ele>
        <time>2018-01-28T14:51:50.999Z</time>
      </trkpt>
      <trkpt lat="44.38435" lon="1.48391">
        <ele>292.17</ele>
        <time>2018-01-28T14:51:58.999Z</time>
      </trkpt>
      <trkpt lat="44.38427" lon="1.484">
        <ele>291.38</ele>
        <time>2018-01-28T14:52:08.999Z</time>
      </trkpt>
      <trkpt lat="44.38421" lon="1.4841">
        <ele>290.24</ele>
        <time>2018-01-28T14:52:18.999Z</time>
      </trkpt>
      <trkpt lat="44.38413" lon="1.48419">
        <ele>289.51</ele>
        <time>2018-01-28T14:52:27.999Z</time>
      </trkpt>
      <trkpt lat="44.38406" lon="1.4843">
        <ele>288.68</ele>
        <time>2018-01-28T14:52:36.999Z</time>
      </trkpt>
      <trkpt lat="44.38398" lon="1.48437">
        <ele>287.78</ele>
        <time>2018-01-28T14:52:46.999Z</time>
      </trkpt>
      <trkpt lat="44.3839" lon="1.48442">
        <ele>287.26</ele>
        <time>2018-01-28T14:52:56.999Z</time>
      </trkpt>
      <trkpt lat="44.38381" lon="1.48449">
        <ele>286.69</ele>
        <time>2018-01-28T14:53:04.999Z</time>
      </trkpt>
      <trkpt lat="44.38374" lon="1.48456">
        <ele>286.3</ele>
        <time>2018-01-28T14:53:13.999Z</time>
      </trkpt>
      <trkpt lat="44.38368" lon="1.48466">
        <ele>286.53</ele>
        <time>2018-01-28T14:53:23.999Z</time>
      </trkpt>
      <trkpt lat="44.38363" lon="1.48477">
        <ele>286.03</ele>
        <time>2018-01-28T14:53:34.999Z</time>
      </trkpt>
      <trkpt lat="44.38362" lon="1.4849">
        <ele>285.56</ele>
        <time>2018-01-28T14:53:41.999Z</time>
      </trkpt>
      <trkpt lat="44.3836" lon="1.48503">
        <ele>285.76</ele>
        <time>2018-01-28T14:53:52.999Z</time>
      </trkpt>
      <trkpt lat="44.38358" lon="1.48516">
        <ele>286.15</ele>
        <time>2018-01-28T14:54:03.999Z</time>
      </trkpt>
      <trkpt lat="44.38353" lon="1.48527">
        <ele>286.7</ele>
        <time>2018-01-28T14:54:13.999Z</time>
      </trkpt>
      <trkpt lat="44.38345" lon="1.48534">
        <ele>287.47</ele>
        <time>2018-01-28T14:54:28.999Z</time>
      </trkpt>
      <trkpt lat="44.38336" lon="1.48536">
        <ele>288.37</ele>
        <time>2018-01-28T14:54:37.999Z</time>
      </trkpt>
      <trkpt lat="44.38329" lon="1.48529">
        <ele>289.35</ele>
        <time>2018-01-28T14:54:50.999Z</time>
      </trkpt>
      <trkpt lat="44.38322" lon="1.48519">
        <ele>289.65</ele>
        <time>2018-01-28T14:54:58.999Z</time>
      </trkpt>
      <trkpt lat="44.38312" lon="1.4852">
        <ele>290.49</ele>
        <time>2018-01-28T14:55:06.999Z</time>
      </trkpt>
      <trkpt lat="44.38304" lon="1.48526">
        <ele>290.86</ele>
        <time>2018-01-28T14:55:14.999Z</time>
      </trkpt>
      <trkpt lat="44.38295" lon="1.48534">
        <ele>290.93</ele>
        <time>2018-01-28T14:55:22.999Z</time>
      </trkpt>
      <trkpt lat="44.38287" lon="1.4854">
        <ele>291.36</ele>
        <time>2018-01-28T14:55:31.999Z</time>
      </trkpt>
      <trkpt lat="44.38278" lon="1.48545">
        <ele>292.19</ele>
        <time>2018-01-28T14:55:41.999Z</time>
      </trkpt>
      <trkpt lat="44.3827" lon="1.4855">
        <ele>292.9</ele>
        <time>2018-01-28T14:55:50.999Z</time>
      </trkpt>
      <trkpt lat="44.3826" lon="1.48554">
        <ele>293.69</ele>
        <time>2018-01-28T14:56:00.999Z</time>
      </trkpt>
      <trkpt lat="44.38252" lon="1.48559">
        <ele>294.56</ele>
        <time>2018-01-28T14:56:09.999Z</time>
      </trkpt>
      <trkpt lat="44.38244" lon="1.48566">
        <ele>295.57</ele>
        <time>2018-01-28T14:56:20.999Z</time>
      </trkpt>
      <trkpt lat="44.38236" lon="1.48572">
        <ele>296.24</ele>
        <time>2018-01-28T14:56:29.999Z</time>
      </trkpt>
      <trkpt lat="44.38227" lon="1.48577">
        <ele>296.99</ele>
        <time>2018-01-28T14:56:39.999Z</time>
      </trkpt>
      <trkpt lat="44.38218" lon="1.48581">
        <ele>297.46</ele>
        <time>2018-01-28T14:56:45.999Z</time>
      </trkpt>
      <trkpt lat="44.3821" lon="1.48588">
        <ele>298.11</ele>
        <time>2018-01-28T14:56:56.999Z</time>
      </trkpt>
      <trkpt lat="44.38201" lon="1.48592">
        <ele>298.47</ele>
        <time>2018-01-28T14:57:04.999Z</time>
      </trkpt>
      <trkpt lat="44.38192" lon="1.48593">
        <ele>298.74</ele>
        <time>2018-01-28T14:57:12.999Z</time>
      </trkpt>
      <trkpt lat="44.38183" lon="1.48598">
        <ele>299.23</ele>
        <time>2018-01-28T14:57:21.999Z</time>
      </trkpt>
      <trkpt lat="44.38174" lon="1.48604">
        <ele>299.76</ele>
        <time>2018-01-28T14:57:31.999Z</time>
      </trkpt>
      <trkpt lat="44.38166" lon="1.48611">
        <ele>300.63</ele>
        <time>2018-01-28T14:57:40.999Z</time>
      </trkpt>
      <trkpt lat="44.38158" lon="1.48617">
        <ele>301.24</ele>
        <time>2018-01-28T14:57:48.999Z</time>
      </trkpt>
      <trkpt lat="44.3815" lon="1.48625">
        <ele>302.09</ele>
        <time>2018-01-28T14:57:59.999Z</time>
      </trkpt>
      <trkpt lat="44.38141" lon="1.48632">
        <ele>302.64</ele>
        <time>2018-01-28T14:58:08.999Z</time>
      </trkpt>
      <trkpt lat="44.38134" lon="1.48639">
        <ele>302.66</ele>
        <time>2018-01-28T14:58:17.999Z</time>
      </trkpt>
      <trkpt lat="44.38125" lon="1.48646">
        <ele>303.48</ele>
        <time>2018-01-28T14:58:28.999Z</time>
      </trkpt>
      <trkpt lat="44.38117" lon="1.48654">
        <ele>304.17</ele>
        <time>2018-01-28T14:58:39.999Z</time>
      </trkpt>
      <trkpt lat="44.38109" lon="1.48662">
        <ele>304.03</ele>
        <time>2018-01-28T14:58:48.999Z</time>
      </trkpt>
      <trkpt lat="44.38101" lon="1.4867">
        <ele>304.14</ele>
        <time>2018-01-28T14:58:59.999Z</time>
      </trkpt>
      <trkpt lat="44.38094" lon="1.48677">
        <ele>304.36</ele>
        <time>2018-01-28T14:59:08.999Z</time>
      </trkpt>
      <trkpt lat="44.38085" lon="1.48683">
        <ele>304.63</ele>
        <time>2018-01-28T14:59:13.999Z</time>
      </trkpt>
      <trkpt lat="44.38076" lon="1.48688">
        <ele>305.01</ele>
        <time>2018-01-28T14:59:23.999Z</time>
      </trkpt>
      <trkpt lat="44.38067" lon="1.48692">
        <ele>305.28</ele>
        <time>2018-01-28T14:59:32.999Z</time>
      </trkpt>
      <trkpt lat="44.38061" lon="1.48702">
        <ele>305.45</ele>
        <time>2018-01-28T14:59:42.999Z</time>
      </trkpt>
      <trkpt lat="44.38053" lon="1.48711">
        <ele>305.6</ele>
        <time>2018-01-28T14:59:51.999Z</time>
      </trkpt>
      <trkpt lat="44.38044" lon="1.48715">
        <ele>305.62</ele>
        <time>2018-01-28T15:00:00.999Z</time>
      </trkpt>
      <trkpt lat="44.38035" lon="1.48716">
        <ele>305.79</ele>
        <time>2018-01-28T15:00:15.999Z</time>
      </trkpt>
      <trkpt lat="44.38031" lon="1.48704">
        <ele>308.09</ele>
        <time>2018-01-28T15:04:00.999Z</time>
      </trkpt>
      <trkpt lat="44.38031" lon="1.4869">
        <ele>307.24</ele>
        <time>2018-01-28T15:04:14.999Z</time>
      </trkpt>
      <trkpt lat="44.3803" lon="1.48676">
        <ele>307.23</ele>
        <time>2018-01-28T15:04:24.999Z</time>
      </trkpt>
      <trkpt lat="44.38027" lon="1.48662">
        <ele>307.77</ele>
        <time>2018-01-28T15:04:32.999Z</time>
      </trkpt>
      <trkpt lat="44.38025" lon="1.48649">
        <ele>308.2</ele>
        <time>2018-01-28T15:04:42.999Z</time>
      </trkpt>
      <trkpt lat="44.38017" lon="1.48641">
        <ele>307.8</ele>
        <time>2018-01-28T15:04:52.999Z</time>
      </trkpt>
      <trkpt lat="44.38013" lon="1.48629">
        <ele>307.47</ele>
        <time>2018-01-28T15:05:02.999Z</time>
      </trkpt>
      <trkpt lat="44.38011" lon="1.48617">
        <ele>306.77</ele>
        <time>2018-01-28T15:05:14.999Z</time>
      </trkpt>
      <trkpt lat="44.38004" lon="1.48604">
        <ele>305.91</ele>
        <time>2018-01-28T15:05:27.999Z</time>
      </trkpt>
      <trkpt lat="44.37998" lon="1.48595">
        <ele>305.86</ele>
        <time>2018-01-28T15:05:35.999Z</time>
      </trkpt>
      <trkpt lat="44.37994" lon="1.48583">
        <ele>306.31</ele>
        <time>2018-01-28T15:05:42.999Z</time>
      </trkpt>
      <trkpt lat="44.37989" lon="1.48571">
        <ele>307.32</ele>
        <time>2018-01-28T15:05:53.999Z</time>
      </trkpt>
      <trkpt lat="44.37987" lon="1.48559">
        <ele>309.12</ele>
        <time>2018-01-28T15:06:06.999Z</time>
      </trkpt>
      <trkpt lat="44.37981" lon="1.48548">
        <ele>310.3</ele>
        <time>2018-01-28T15:06:18.999Z</time>
      </trkpt>
      <trkpt lat="44.37976" lon="1.48536">
        <ele>311.32</ele>
        <time>2018-01-28T15:06:30.999Z</time>
      </trkpt>
      <trkpt lat="44.37973" lon="1.48523">
        <ele>312.2</ele>
        <time>2018-01-28T15:06:40.999Z</time>
      </trkpt>
      <trkpt lat="44.37973" lon="1.48511">
        <ele>313.07</ele>
        <time>2018-01-28T15:06:50.999Z</time>
      </trkpt>
      <trkpt lat="44.37973" lon="1.48498">
        <ele>313.59</ele>
        <time>2018-01-28T15:07:00.999Z</time>
      </trkpt>
      <trkpt lat="44.37975" lon="1.48485">
        <ele>313.5</ele>
        <time>2018-01-28T15:07:11.999Z</time>
      </trkpt>
      <trkpt lat="44.37974" lon="1.48472">
        <ele>313.42</ele>
        <time>2018-01-28T15:07:21.999Z</time>
      </trkpt>
      <trkpt lat="44.37975" lon="1.48458">
        <ele>314.65</ele>
        <time>2018-01-28T15:07:31.999Z</time>
      </trkpt>
      <trkpt lat="44.37975" lon="1.48444">
        <ele>315.93</ele>
        <time>2018-01-28T15:07:38.999Z</time>
      </trkpt>
      <trkpt lat="44.37975" lon="1.48431">
        <ele>317.01</ele>
        <time>2018-01-28T15:07:49.999Z</time>
      </trkpt>
      <trkpt lat="44.37974" lon="1.48418">
        <ele>317.1</ele>
        <time>2018-01-28T15:07:59.999Z</time>
      </trkpt>
      <trkpt lat="44.37973" lon="1.48406">
        <ele>317.16</ele>
        <time>2018-01-28T15:08:10.999Z</time>
      </trkpt>
      <trkpt lat="44.37972" lon="1.48392">
        <ele>317.02</ele>
        <time>2018-01-28T15:08:18.999Z</time>
      </trkpt>
      <trkpt lat="44.37972" lon="1.48379">
        <ele>317.1</ele>
        <time>2018-01-28T15:08:27.999Z</time>
      </trkpt>
      <trkpt lat="44.37974" lon="1.48365">
        <ele>317.88</ele>
        <time>2018-01-28T15:08:38.999Z</time>
      </trkpt>
      <trkpt lat="44.37973" lon="1.48351">
        <ele>318.58</ele>
        <time>2018-01-28T15:08:46.999Z</time>
      </trkpt>
      <trkpt lat="44.37973" lon="1.48338">
        <ele>318.99</ele>
        <time>2018-01-28T15:08:57.999Z</time>
      </trkpt>
      <trkpt lat="44.37972" lon="1.48324">
        <ele>319.9</ele>
        <time>2018-01-28T15:09:07.999Z</time>
      </trkpt>
      <trkpt lat="44.3797" lon="1.48311">
        <ele>320.28</ele>
        <time>2018-01-28T15:09:16.999Z</time>
      </trkpt>
      <trkpt lat="44.37969" lon="1.48298">
        <ele>319.89</ele>
        <time>2018-01-28T15:09:25.999Z</time>
      </trkpt>
      <trkpt lat="44.37967" lon="1.48285">
        <ele>319.27</ele>
        <time>2018-01-28T15:09:34.999Z</time>
      </trkpt>
      <trkpt lat="44.37964" lon="1.48271">
        <ele>319.03</ele>
        <time>2018-01-28T15:09:44.999Z</time>
      </trkpt>
      <trkpt lat="44.37962" lon="1.48259">
        <ele>318.7</ele>
        <time>2018-01-28T15:09:52.999Z</time>
      </trkpt>
      <trkpt lat="44.37958" lon="1.48246">
        <ele>319</ele>
        <time>2018-01-28T15:10:04.999Z</time>
      </trkpt>
      <trkpt lat="44.37956" lon="1.48233">
        <ele>319.78</ele>
        <time>2018-01-28T15:10:13.999Z</time>
      </trkpt>
      <trkpt lat="44.37953" lon="1.4822">
        <ele>320.65</ele>
        <time>2018-01-28T15:10:21.999Z</time>
      </trkpt>
      <trkpt lat="44.37954" lon="1.48207">
        <ele>322.81</ele>
        <time>2018-01-28T15:10:34.999Z</time>
      </trkpt>
      <trkpt lat="44.37954" lon="1.48193">
        <ele>324.24</ele>
        <time>2018-01-28T15:10:43.999Z</time>
      </trkpt>
      <trkpt lat="44.37956" lon="1.4818">
        <ele>324.92</ele>
        <time>2018-01-28T15:10:51.999Z</time>
      </trkpt>
      <trkpt lat="44.37956" lon="1.48167">
        <ele>324.87</ele>
        <time>2018-01-28T15:11:01.999Z</time>
      </trkpt>
      <trkpt lat="44.37956" lon="1.48154">
        <ele>325.05</ele>
        <time>2018-01-28T15:11:14.999Z</time>
      </trkpt>
      <trkpt lat="44.37957" lon="1.48141">
        <ele>324.86</ele>
        <time>2018-01-28T15:11:22.999Z</time>
      </trkpt>
      <trkpt lat="44.37958" lon="1.48128">
        <ele>325.08</ele>
        <time>2018-01-28T15:11:29.999Z</time>
      </trkpt>
      <trkpt lat="44.3796" lon="1.48116">
        <ele>325.22</ele>
        <time>2018-01-28T15:11:38.999Z</time>
      </trkpt>
      <trkpt lat="44.37964" lon="1.48104">
        <ele>324.94</ele>
        <time>2018-01-28T15:11:47.999Z</time>
      </trkpt>
      <trkpt lat="44.37967" lon="1.48092">
        <ele>324.73</ele>
        <time>2018-01-28T15:11:56.999Z</time>
      </trkpt>
      <trkpt lat="44.37971" lon="1.48081">
        <ele>324.34</ele>
        <time>2018-01-28T15:12:05.999Z</time>
      </trkpt>
      <trkpt lat="44.37976" lon="1.4807">
        <ele>324.05</ele>
        <time>2018-01-28T15:12:14.999Z</time>
      </trkpt>
      <trkpt lat="44.37982" lon="1.48059">
        <ele>324.3</ele>
        <time>2018-01-28T15:12:22.999Z</time>
      </trkpt>
      <trkpt lat="44.37987" lon="1.48048">
        <ele>324.9</ele>
        <time>2018-01-28T15:12:32.999Z</time>
      </trkpt>
      <trkpt lat="44.37992" lon="1.48037">
        <ele>324.99</ele>
        <time>2018-01-28T15:12:42.999Z</time>
      </trkpt>
      <trkpt lat="44.37996" lon="1.48025">
        <ele>324.79</ele>
        <time>2018-01-28T15:12:51.999Z</time>
      </trkpt>
      <trkpt lat="44.38001" lon="1.48014">
        <ele>324.88</ele>
        <time>2018-01-28T15:12:59.999Z</time>
      </trkpt>
      <trkpt lat="44.38006" lon="1.48002">
        <ele>325.14</ele>
        <time>2018-01-28T15:13:08.999Z</time>
      </trkpt>
      <trkpt lat="44.38012" lon="1.47992">
        <ele>325.18</ele>
        <time>2018-01-28T15:13:16.999Z</time>
      </trkpt>
      <trkpt lat="44.38019" lon="1.47982">
        <ele>325.34</ele>
        <time>2018-01-28T15:13:25.999Z</time>
      </trkpt>
      <trkpt lat="44.38024" lon="1.47972">
        <ele>325.65</ele>
        <time>2018-01-28T15:13:34.999Z</time>
      </trkpt>
      <trkpt lat="44.38029" lon="1.4796">
        <ele>325.83</ele>
        <time>2018-01-28T15:13:43.999Z</time>
      </trkpt>
      <trkpt lat="44.38036" lon="1.47952">
        <ele>326.15</ele>
        <time>2018-01-28T15:13:53.999Z</time>
      </trkpt>
      <trkpt lat="44.38044" lon="1.47943">
        <ele>325.98</ele>
        <time>2018-01-28T15:14:02.999Z</time>
      </trkpt>
      <trkpt lat="44.38052" lon="1.47935">
        <ele>326.14</ele>
        <time>2018-01-28T15:14:11.999Z</time>
      </trkpt>
      <trkpt lat="44.38059" lon="1.47927">
        <ele>326.14</ele>
        <time>2018-01-28T15:14:19.999Z</time>
      </trkpt>
      <trkpt lat="44.38066" lon="1.47918">
        <ele>326.12</ele>
        <time>2018-01-28T15:14:29.999Z</time>
      </trkpt>
      <trkpt lat="44.38073" lon="1.4791">
        <ele>326.04</ele>
        <time>2018-01-28T15:14:37.999Z</time>
      </trkpt>
      <trkpt lat="44.38082" lon="1.47901">
        <ele>325.92</ele>
        <time>2018-01-28T15:14:46.999Z</time>
      </trkpt>
      <trkpt lat="44.38089" lon="1.47893">
        <ele>325.93</ele>
        <time>2018-01-28T15:14:54.999Z</time>
      </trkpt>
      <trkpt lat="44.38097" lon="1.47886">
        <ele>326.19</ele>
        <time>2018-01-28T15:15:04.999Z</time>
      </trkpt>
      <trkpt lat="44.38105" lon="1.47879">
        <ele>326.76</ele>
        <time>2018-01-28T15:15:13.999Z</time>
      </trkpt>
      <trkpt lat="44.38112" lon="1.47871">
        <ele>326.88</ele>
        <time>2018-01-28T15:15:21.999Z</time>
      </trkpt>
      <trkpt lat="44.38119" lon="1.47861">
        <ele>326.67</ele>
        <time>2018-01-28T15:15:32.999Z</time>
      </trkpt>
      <trkpt lat="44.38125" lon="1.4785">
        <ele>326.7</ele>
        <time>2018-01-28T15:15:41.999Z</time>
      </trkpt>
      <trkpt lat="44.38131" lon="1.47841">
        <ele>326.34</ele>
        <time>2018-01-28T15:15:50.999Z</time>
      </trkpt>
      <trkpt lat="44.38138" lon="1.47834">
        <ele>325.97</ele>
        <time>2018-01-28T15:16:00.999Z</time>
      </trkpt>
      <trkpt lat="44.38146" lon="1.47826">
        <ele>325.46</ele>
        <time>2018-01-28T15:16:09.999Z</time>
      </trkpt>
      <trkpt lat="44.38154" lon="1.4782">
        <ele>325.01</ele>
        <time>2018-01-28T15:16:19.999Z</time>
      </trkpt>
      <trkpt lat="44.38163" lon="1.47813">
        <ele>325.25</ele>
        <time>2018-01-28T15:16:28.999Z</time>
      </trkpt>
      <trkpt lat="44.3817" lon="1.47805">
        <ele>325.48</ele>
        <time>2018-01-28T15:16:34.999Z</time>
      </trkpt>
      <trkpt lat="44.38178" lon="1.47798">
        <ele>325.88</ele>
        <time>2018-01-28T15:16:44.999Z</time>
      </trkpt>
      <trkpt lat="44.38185" lon="1.47788">
        <ele>325.81</ele>
        <time>2018-01-28T15:16:52.999Z</time>
      </trkpt>
      <trkpt lat="44.38193" lon="1.4778">
        <ele>326.07</ele>
        <time>2018-01-28T15:17:02.999Z</time>
      </trkpt>
      <trkpt lat="44.38199" lon="1.4777">
        <ele>326.2</ele>
        <time>2018-01-28T15:17:10.999Z</time>
      </trkpt>
      <trkpt lat="44.38205" lon="1.47762">
        <ele>326.18</ele>
        <time>2018-01-28T15:17:18.999Z</time>
      </trkpt>
      <trkpt lat="44.38213" lon="1.47754">
        <ele>325.99</ele>
        <time>2018-01-28T15:17:26.999Z</time>
      </trkpt>
      <trkpt lat="44.3822" lon="1.47743">
        <ele>325.18</ele>
        <time>2018-01-28T15:17:41.999Z</time>
      </trkpt>
      <trkpt lat="44.38226" lon="1.47733">
        <ele>324.74</ele>
        <time>2018-01-28T15:17:50.999Z</time>
      </trkpt>
      <trkpt lat="44.38235" lon="1.47728">
        <ele>323.9</ele>
        <time>2018-01-28T15:18:01.999Z</time>
      </trkpt>
      <trkpt lat="44.38243" lon="1.47719">
        <ele>323.29</ele>
        <time>2018-01-28T15:18:10.999Z</time>
      </trkpt>
      <trkpt lat="44.38252" lon="1.47711">
        <ele>323.06</ele>
        <time>2018-01-28T15:18:21.999Z</time>
      </trkpt>
      <trkpt lat="44.38258" lon="1.47702">
        <ele>323.08</ele>
        <time>2018-01-28T15:18:29.999Z</time>
      </trkpt>
      <trkpt lat="44.38267" lon="1.47696">
        <ele>323.04</ele>
        <time>2018-01-28T15:18:38.999Z</time>
      </trkpt>
      <trkpt lat="44.38276" lon="1.477">
        <ele>322.78</ele>
        <time>2018-01-28T15:18:45.999Z</time>
      </trkpt>
      <trkpt lat="44.38282" lon="1.4771">
        <ele>322.39</ele>
        <time>2018-01-28T15:18:54.999Z</time>
      </trkpt>
      <trkpt lat="44.38287" lon="1.47721">
        <ele>322.5</ele>
        <time>2018-01-28T15:19:07.999Z</time>
      </trkpt>
      <trkpt lat="44.38294" lon="1.47731">
        <ele>322.37</ele>
        <time>2018-01-28T15:19:17.999Z</time>
      </trkpt>
      <trkpt lat="44.38301" lon="1.47739">
        <ele>321.65</ele>
        <time>2018-01-28T15:19:27.999Z</time>
      </trkpt>
      <trkpt lat="44.38309" lon="1.47747">
        <ele>321.58</ele>
        <time>2018-01-28T15:19:36.999Z</time>
      </trkpt>
      <trkpt lat="44.38316" lon="1.47758">
        <ele>321.06</ele>
        <time>2018-01-28T15:19:43.999Z</time>
      </trkpt>
      <trkpt lat="44.3832" lon="1.4777">
        <ele>320.5</ele>
        <time>2018-01-28T15:19:51.999Z</time>
      </trkpt>
      <trkpt lat="44.38328" lon="1.47778">
        <ele>320.18</ele>
        <time>2018-01-28T15:20:00.999Z</time>
      </trkpt>
      <trkpt lat="44.38337" lon="1.47783">
        <ele>319.95</ele>
        <time>2018-01-28T15:20:07.999Z</time>
      </trkpt>
      <trkpt lat="44.38345" lon="1.47786">
        <ele>320.13</ele>
        <time>2018-01-28T15:20:15.999Z</time>
      </trkpt>
      <trkpt lat="44.38355" lon="1.47792">
        <ele>320.02</ele>
        <time>2018-01-28T15:20:23.999Z</time>
      </trkpt>
      <trkpt lat="44.38364" lon="1.47799">
        <ele>319.69</ele>
        <time>2018-01-28T15:20:30.999Z</time>
      </trkpt>
      <trkpt lat="44.38372" lon="1.47806">
        <ele>319.04</ele>
        <time>2018-01-28T15:20:40.999Z</time>
      </trkpt>
      <trkpt lat="44.38379" lon="1.47797">
        <ele>319.3</ele>
        <time>2018-01-28T15:20:46.999Z</time>
      </trkpt>
      <trkpt lat="44.38383" lon="1.47786">
        <ele>319.49</ele>
        <time>2018-01-28T15:20:53.999Z</time>
      </trkpt>
      <trkpt lat="44.3839" lon="1.47775">
        <ele>319.79</ele>
        <time>2018-01-28T15:21:01.999Z</time>
      </trkpt>
      <trkpt lat="44.38397" lon="1.47767">
        <ele>320.14</ele>
        <time>2018-01-28T15:21:08.999Z</time>
      </trkpt>
      <trkpt lat="44.38403" lon="1.47754">
        <ele>320.41</ele>
        <time>2018-01-28T15:21:17.999Z</time>
      </trkpt>
      <trkpt lat="44.38408" lon="1.47744">
        <ele>320.83</ele>
        <time>2018-01-28T15:21:23.999Z</time>
      </trkpt>
      <trkpt lat="44.38416" lon="1.47737">
        <ele>321.7</ele>
        <time>2018-01-28T15:21:33.999Z</time>
      </trkpt>
      <trkpt lat="44.38422" lon="1.47728">
        <ele>322.26</ele>
        <time>2018-01-28T15:21:40.999Z</time>
      </trkpt>
      <trkpt lat="44.38426" lon="1.47715">
        <ele>323.01</ele>
        <time>2018-01-28T15:21:49.999Z</time>
      </trkpt>
      <trkpt lat="44.38432" lon="1.47705">
        <ele>323.25</ele>
        <time>2018-01-28T15:21:57.999Z</time>
      </trkpt>
      <trkpt lat="44.38439" lon="1.47694">
        <ele>323.23</ele>
        <time>2018-01-28T15:22:07.999Z</time>
      </trkpt>
      <trkpt lat="44.38445" lon="1.47684">
        <ele>323.17</ele>
        <time>2018-01-28T15:22:17.999Z</time>
      </trkpt>
      <trkpt lat="44.38453" lon="1.47675">
        <ele>323.31</ele>
        <time>2018-01-28T15:22:26.999Z</time>
      </trkpt>
      <trkpt lat="44.38458" lon="1.47664">
        <ele>323.45</ele>
        <time>2018-01-28T15:22:34.999Z</time>
      </trkpt>
      <trkpt lat="44.38463" lon="1.47654">
        <ele>323.46</ele>
        <time>2018-01-28T15:22:43.999Z</time>
      </trkpt>
      <trkpt lat="44.3847" lon="1.47644">
        <ele>323.65</ele>
        <time>2018-01-28T15:22:52.999Z</time>
      </trkpt>
      <trkpt lat="44.38476" lon="1.47633">
        <ele>323.84</ele>
        <time>2018-01-28T15:23:00.999Z</time>
      </trkpt>
      <trkpt lat="44.38482" lon="1.47622">
        <ele>323.66</ele>
        <time>2018-01-28T15:23:12.999Z</time>
      </trkpt>
      <trkpt lat="44.3849" lon="1.47618">
        <ele>323.42</ele>
        <time>2018-01-28T15:23:19.999Z</time>
      </trkpt>
      <trkpt lat="44.385" lon="1.47615">
        <ele>323.51</ele>
        <time>2018-01-28T15:23:31.999Z</time>
      </trkpt>
      <trkpt lat="44.38509" lon="1.47614">
        <ele>323.83</ele>
        <time>2018-01-28T15:23:39.999Z</time>
      </trkpt>
      <trkpt lat="44.38519" lon="1.47609">
        <ele>323.99</ele>
        <time>2018-01-28T15:23:48.999Z</time>
      </trkpt>
      <trkpt lat="44.38529" lon="1.47607">
        <ele>323.83</ele>
        <time>2018-01-28T15:23:57.999Z</time>
      </trkpt>
      <trkpt lat="44.38539" lon="1.47604">
        <ele>323.77</ele>
        <time>2018-01-28T15:24:06.999Z</time>
      </trkpt>
      <trkpt lat="44.38549" lon="1.47601">
        <ele>323.83</ele>
        <time>2018-01-28T15:24:14.999Z</time>
      </trkpt>
      <trkpt lat="44.38557" lon="1.47596">
        <ele>323.89</ele>
        <time>2018-01-28T15:24:21.999Z</time>
      </trkpt>
      <trkpt lat="44.38566" lon="1.47594">
        <ele>323.69</ele>
        <time>2018-01-28T15:24:29.999Z</time>
      </trkpt>
      <trkpt lat="44.38576" lon="1.47591">
        <ele>324.15</ele>
        <time>2018-01-28T15:24:38.999Z</time>
      </trkpt>
      <trkpt lat="44.38585" lon="1.47587">
        <ele>324.41</ele>
        <time>2018-01-28T15:24:46.999Z</time>
      </trkpt>
      <trkpt lat="44.38594" lon="1.47582">
        <ele>324.06</ele>
        <time>2018-01-28T15:24:56.999Z</time>
      </trkpt>
      <trkpt lat="44.38603" lon="1.47577">
        <ele>324.26</ele>
        <time>2018-01-28T15:25:04.999Z</time>
      </trkpt>
      <trkpt lat="44.38612" lon="1.47571">
        <ele>324.29</ele>
        <time>2018-01-28T15:25:13.999Z</time>
      </trkpt>
      <trkpt lat="44.38621" lon="1.47569">
        <ele>324.21</ele>
        <time>2018-01-28T15:25:21.999Z</time>
      </trkpt>
      <trkpt lat="44.38628" lon="1.47562">
        <ele>323.68</ele>
        <time>2018-01-28T15:25:31.999Z</time>
      </trkpt>
      <trkpt lat="44.38638" lon="1.47559">
        <ele>322.95</ele>
        <time>2018-01-28T15:25:41.999Z</time>
      </trkpt>
      <trkpt lat="44.38648" lon="1.47556">
        <ele>321.92</ele>
        <time>2018-01-28T15:25:50.999Z</time>
      </trkpt>
      <trkpt lat="44.38657" lon="1.47556">
        <ele>321.44</ele>
        <time>2018-01-28T15:25:57.999Z</time>
      </trkpt>
      <trkpt lat="44.38666" lon="1.4756">
        <ele>320.95</ele>
        <time>2018-01-28T15:26:05.999Z</time>
      </trkpt>
      <trkpt lat="44.38675" lon="1.47564">
        <ele>320.54</ele>
        <time>2018-01-28T15:26:13.999Z</time>
      </trkpt>
      <trkpt lat="44.38685" lon="1.47568">
        <ele>320.76</ele>
        <time>2018-01-28T15:26:21.999Z</time>
      </trkpt>
      <trkpt lat="44.38693" lon="1.47574">
        <ele>320.52</ele>
        <time>2018-01-28T15:26:30.999Z</time>
      </trkpt>
      <trkpt lat="44.38701" lon="1.47581">
        <ele>319.9</ele>
        <time>2018-01-28T15:26:39.999Z</time>
      </trkpt>
      <trkpt lat="44.38709" lon="1.47588">
        <ele>318.95</ele>
        <time>2018-01-28T15:26:48.999Z</time>
      </trkpt>
      <trkpt lat="44.38718" lon="1.47594">
        <ele>318.47</ele>
        <time>2018-01-28T15:26:56.999Z</time>
      </trkpt>
      <trkpt lat="44.38726" lon="1.47603">
        <ele>318.38</ele>
        <time>2018-01-28T15:27:05.999Z</time>
      </trkpt>
      <trkpt lat="44.38735" lon="1.4761">
        <ele>318.23</ele>
        <time>2018-01-28T15:27:14.999Z</time>
      </trkpt>
      <trkpt lat="44.38743" lon="1.47616">
        <ele>318.75</ele>
        <time>2018-01-28T15:27:22.999Z</time>
      </trkpt>
      <trkpt lat="44.38751" lon="1.47623">
        <ele>318.43</ele>
        <time>2018-01-28T15:27:33.999Z</time>
      </trkpt>
      <trkpt lat="44.38757" lon="1.47632">
        <ele>317.92</ele>
        <time>2018-01-28T15:27:41.999Z</time>
      </trkpt>
      <trkpt lat="44.38763" lon="1.4764">
        <ele>316.55</ele>
        <time>2018-01-28T15:27:51.999Z</time>
      </trkpt>
      <trkpt lat="44.38771" lon="1.47649">
        <ele>316.21</ele>
        <time>2018-01-28T15:27:58.999Z</time>
      </trkpt>
      <trkpt lat="44.38778" lon="1.47659">
        <ele>315.89</ele>
        <time>2018-01-28T15:28:07.999Z</time>
      </trkpt>
      <trkpt lat="44.38785" lon="1.47668">
        <ele>315.11</ele>
        <time>2018-01-28T15:28:17.999Z</time>
      </trkpt>
      <trkpt lat="44.38791" lon="1.47679">
        <ele>314.48</ele>
        <time>2018-01-28T15:28:27.999Z</time>
      </trkpt>
      <trkpt lat="44.38797" lon="1.47689">
        <ele>314.49</ele>
        <time>2018-01-28T15:28:36.999Z</time>
      </trkpt>
      <trkpt lat="44.38803" lon="1.47698">
        <ele>314.13</ele>
        <time>2018-01-28T15:28:42.999Z</time>
      </trkpt>
      <trkpt lat="44.38811" lon="1.47706">
        <ele>314.11</ele>
        <time>2018-01-28T15:28:53.999Z</time>
      </trkpt>
      <trkpt lat="44.38819" lon="1.47714">
        <ele>313.86</ele>
        <time>2018-01-28T15:29:01.999Z</time>
      </trkpt>
      <trkpt lat="44.38825" lon="1.47725">
        <ele>313.46</ele>
        <time>2018-01-28T15:29:09.999Z</time>
      </trkpt>
      <trkpt lat="44.38831" lon="1.47736">
        <ele>313.46</ele>
        <time>2018-01-28T15:29:17.999Z</time>
      </trkpt>
      <trkpt lat="44.38839" lon="1.47741">
        <ele>314.5</ele>
        <time>2018-01-28T15:29:41.999Z</time>
      </trkpt>
      <trkpt lat="44.38849" lon="1.47742">
        <ele>315.59</ele>
        <time>2018-01-28T15:29:51.999Z</time>
      </trkpt>
      <trkpt lat="44.38858" lon="1.47747">
        <ele>316.47</ele>
        <time>2018-01-28T15:30:05.999Z</time>
      </trkpt>
      <trkpt lat="44.38866" lon="1.47752">
        <ele>316.3</ele>
        <time>2018-01-28T15:30:14.999Z</time>
      </trkpt>
      <trkpt lat="44.38876" lon="1.47754">
        <ele>317.31</ele>
        <time>2018-01-28T15:32:23.999Z</time>
      </trkpt>
      <trkpt lat="44.38884" lon="1.47759">
        <ele>317.26</ele>
        <time>2018-01-28T15:32:33.999Z</time>
      </trkpt>
      <trkpt lat="44.38894" lon="1.47762">
        <ele>317.25</ele>
        <time>2018-01-28T15:32:40.999Z</time>
      </trkpt>
      <trkpt lat="44.38903" lon="1.47762">
        <ele>317.61</ele>
        <time>2018-01-28T15:32:48.999Z</time>
      </trkpt>
      <trkpt lat="44.38913" lon="1.47766">
        <ele>318.09</ele>
        <time>2018-01-28T15:32:57.999Z</time>
      </trkpt>
      <trkpt lat="44.38923" lon="1.47767">
        <ele>318.27</ele>
        <time>2018-01-28T15:33:06.999Z</time>
      </trkpt>
      <trkpt lat="44.38932" lon="1.47772">
        <ele>318.72</ele>
        <time>2018-01-28T15:33:14.999Z</time>
      </trkpt>
      <trkpt lat="44.3894" lon="1.47776">
        <ele>319.47</ele>
        <time>2018-01-28T15:33:26.999Z</time>
      </trkpt>
      <trkpt lat="44.3895" lon="1.47778">
        <ele>319.47</ele>
        <time>2018-01-28T15:33:32.999Z</time>
      </trkpt>
      <trkpt lat="44.3896" lon="1.4778">
        <ele>319.95</ele>
        <time>2018-01-28T15:33:44.999Z</time>
      </trkpt>
      <trkpt lat="44.38969" lon="1.47784">
        <ele>320.48</ele>
        <time>2018-01-28T15:33:52.999Z</time>
      </trkpt>
      <trkpt lat="44.38977" lon="1.47792">
        <ele>321.82</ele>
        <time>2018-01-28T15:34:02.999Z</time>
      </trkpt>
      <trkpt lat="44.38986" lon="1.47797">
        <ele>322.74</ele>
        <time>2018-01-28T15:34:12.999Z</time>
      </trkpt>
      <trkpt lat="44.38995" lon="1.47802">
        <ele>324.25</ele>
        <time>2018-01-28T15:34:20.999Z</time>
      </trkpt>
      <trkpt lat="44.39003" lon="1.47805">
        <ele>325.1</ele>
        <time>2018-01-28T15:34:30.999Z</time>
      </trkpt>
      <trkpt lat="44.39012" lon="1.4781">
        <ele>324.68</ele>
        <time>2018-01-28T15:34:40.999Z</time>
      </trkpt>
      <trkpt lat="44.39021" lon="1.47814">
        <ele>324.84</ele>
        <time>2018-01-28T15:34:50.999Z</time>
      </trkpt>
      <trkpt lat="44.39029" lon="1.47819">
        <ele>324.4</ele>
        <time>2018-01-28T15:35:03.999Z</time>
      </trkpt>
      <trkpt lat="44.39038" lon="1.47825">
        <ele>323.58</ele>
        <time>2018-01-28T15:35:13.999Z</time>
      </trkpt>
      <trkpt lat="44.39045" lon="1.47832">
        <ele>323.03</ele>
        <time>2018-01-28T15:35:22.999Z</time>
      </trkpt>
      <trkpt lat="44.39055" lon="1.47837">
        <ele>322.62</ele>
        <time>2018-01-28T15:35:32.999Z</time>
      </trkpt>
      <trkpt lat="44.39063" lon="1.47842">
        <ele>322.08</ele>
        <time>2018-01-28T15:35:40.999Z</time>
      </trkpt>
      <trkpt lat="44.39073" lon="1.47842">
        <ele>321.49</ele>
        <time>2018-01-28T15:35:51.999Z</time>
      </trkpt>
      <trkpt lat="44.39082" lon="1.47842">
        <ele>321.24</ele>
        <time>2018-01-28T15:35:59.999Z</time>
      </trkpt>
      <trkpt lat="44.39091" lon="1.47837">
        <ele>321.52</ele>
        <time>2018-01-28T15:36:07.999Z</time>
      </trkpt>
      <trkpt lat="44.39099" lon="1.47829">
        <ele>321.32</ele>
        <time>2018-01-28T15:36:14.999Z</time>
      </trkpt>
      <trkpt lat="44.39108" lon="1.47823">
        <ele>320.91</ele>
        <time>2018-01-28T15:36:22.999Z</time>
      </trkpt>
      <trkpt lat="44.39115" lon="1.47815">
        <ele>320.01</ele>
        <time>2018-01-28T15:36:32.999Z</time>
      </trkpt>
      <trkpt lat="44.39121" lon="1.47805">
        <ele>319.61</ele>
        <time>2018-01-28T15:36:42.999Z</time>
      </trkpt>
      <trkpt lat="44.39128" lon="1.47796">
        <ele>319.48</ele>
        <time>2018-01-28T15:36:51.999Z</time>
      </trkpt>
      <trkpt lat="44.39133" lon="1.47785">
        <ele>319.48</ele>
        <time>2018-01-28T15:37:01.999Z</time>
      </trkpt>
      <trkpt lat="44.39136" lon="1.47773">
        <ele>319.34</ele>
        <time>2018-01-28T15:37:11.999Z</time>
      </trkpt>
      <trkpt lat="44.39141" lon="1.47761">
        <ele>319.06</ele>
        <time>2018-01-28T15:37:20.999Z</time>
      </trkpt>
      <trkpt lat="44.39145" lon="1.4775">
        <ele>319.16</ele>
        <time>2018-01-28T15:37:28.999Z</time>
      </trkpt>
      <trkpt lat="44.39153" lon="1.47742">
        <ele>318.8</ele>
        <time>2018-01-28T15:37:38.999Z</time>
      </trkpt>
      <trkpt lat="44.39162" lon="1.47735">
        <ele>319.2</ele>
        <time>2018-01-28T15:37:45.999Z</time>
      </trkpt>
      <trkpt lat="44.39168" lon="1.47726">
        <ele>320.06</ele>
        <time>2018-01-28T15:37:56.999Z</time>
      </trkpt>
      <trkpt lat="44.39175" lon="1.47717">
        <ele>320.32</ele>
        <time>2018-01-28T15:38:07.999Z</time>
      </trkpt>
      <trkpt lat="44.39183" lon="1.47709">
        <ele>320.08</ele>
        <time>2018-01-28T15:38:18.999Z</time>
      </trkpt>
      <trkpt lat="44.39191" lon="1.47703">
        <ele>320.37</ele>
        <time>2018-01-28T15:38:28.999Z</time>
      </trkpt>
      <trkpt lat="44.392" lon="1.47696">
        <ele>320.8</ele>
        <time>2018-01-28T15:38:37.999Z</time>
      </trkpt>
      <trkpt lat="44.39208" lon="1.4769">
        <ele>321.44</ele>
        <time>2018-01-28T15:38:47.999Z</time>
      </trkpt>
      <trkpt lat="44.39216" lon="1.47684">
        <ele>321.66</ele>
        <time>2018-01-28T15:38:56.999Z</time>
      </trkpt>
      <trkpt lat="44.39225" lon="1.47679">
        <ele>322.31</ele>
        <time>2018-01-28T15:39:07.999Z</time>
      </trkpt>
      <trkpt lat="44.39233" lon="1.47672">
        <ele>323.15</ele>
        <time>2018-01-28T15:39:15.999Z</time>
      </trkpt>
      <trkpt lat="44.39242" lon="1.47669">
        <ele>323.85</ele>
        <time>2018-01-28T15:39:24.999Z</time>
      </trkpt>
      <trkpt lat="44.39249" lon="1.47661">
        <ele>324.55</ele>
        <time>2018-01-28T15:39:33.999Z</time>
      </trkpt>
      <trkpt lat="44.39257" lon="1.47654">
        <ele>325.55</ele>
        <time>2018-01-28T15:39:47.999Z</time>
      </trkpt>
      <trkpt lat="44.39265" lon="1.47647">
        <ele>325.98</ele>
        <time>2018-01-28T15:39:57.999Z</time>
      </trkpt>
      <trkpt lat="44.39274" lon="1.47641">
        <ele>327</ele>
        <time>2018-01-28T15:40:06.999Z</time>
      </trkpt>
      <trkpt lat="44.39281" lon="1.47634">
        <ele>328.41</ele>
        <time>2018-01-28T15:40:18.999Z</time>
      </trkpt>
      <trkpt lat="44.3929" lon="1.47628">
        <ele>329.39</ele>
        <time>2018-01-28T15:40:27.999Z</time>
      </trkpt>
      <trkpt lat="44.39297" lon="1.4762">
        <ele>330.19</ele>
        <time>2018-01-28T15:40:37.999Z</time>
      </trkpt>
      <trkpt lat="44.39306" lon="1.47615">
        <ele>331.09</ele>
        <time>2018-01-28T15:40:47.999Z</time>
      </trkpt>
      <trkpt lat="44.39314" lon="1.47608">
        <ele>332.61</ele>
        <time>2018-01-28T15:40:56.999Z</time>
      </trkpt>
      <trkpt lat="44.39322" lon="1.47601">
        <ele>333.47</ele>
        <time>2018-01-28T15:41:06.999Z</time>
      </trkpt>
      <trkpt lat="44.3933" lon="1.47594">
        <ele>334.14</ele>
        <time>2018-01-28T15:41:15.999Z</time>
      </trkpt>
      <trkpt lat="44.39338" lon="1.47587">
        <ele>334.54</ele>
        <time>2018-01-28T15:41:22.999Z</time>
      </trkpt>
      <trkpt lat="44.39346" lon="1.47584">
        <ele>335.27</ele>
        <time>2018-01-28T15:41:27.999Z</time>
      </trkpt>
      <trkpt lat="44.39355" lon="1.47579">
        <ele>336.24</ele>
        <time>2018-01-28T15:41:36.999Z</time>
      </trkpt>
      <trkpt lat="44.39363" lon="1.47574">
        <ele>336.67</ele>
        <time>2018-01-28T15:41:47.999Z</time>
      </trkpt>
      <trkpt lat="44.39372" lon="1.4757">
        <ele>336.73</ele>
        <time>2018-01-28T15:41:55.999Z</time>
      </trkpt>
      <trkpt lat="44.3938" lon="1.47563">
        <ele>336.51</ele>
        <time>2018-01-28T15:42:07.999Z</time>
      </trkpt>
      <trkpt lat="44.39388" lon="1.47559">
        <ele>336.6</ele>
        <time>2018-01-28T15:42:16.999Z</time>
      </trkpt>
      <trkpt lat="44.39397" lon="1.47555">
        <ele>335.93</ele>
        <time>2018-01-28T15:42:28.999Z</time>
      </trkpt>
      <trkpt lat="44.39407" lon="1.47554">
        <ele>335.51</ele>
        <time>2018-01-28T15:42:37.999Z</time>
      </trkpt>
      <trkpt lat="44.39415" lon="1.47548">
        <ele>334.95</ele>
        <time>2018-01-28T15:42:47.999Z</time>
      </trkpt>
      <trkpt lat="44.39423" lon="1.4754">
        <ele>334.25</ele>
        <time>2018-01-28T15:42:58.999Z</time>
      </trkpt>
      <trkpt lat="44.39424" lon="1.47527">
        <ele>331.91</ele>
        <time>2018-01-28T15:43:17.999Z</time>
      </trkpt>
      <trkpt lat="44.39426" lon="1.47515">
        <ele>331.73</ele>
        <time>2018-01-28T15:43:26.999Z</time>
      </trkpt>
      <trkpt lat="44.39427" lon="1.47502">
        <ele>331.17</ele>
        <time>2018-01-28T15:43:34.999Z</time>
      </trkpt>
      <trkpt lat="44.39428" lon="1.47489">
        <ele>330.75</ele>
        <time>2018-01-28T15:43:43.999Z</time>
      </trkpt>
      <trkpt lat="44.39431" lon="1.47476">
        <ele>330.27</ele>
        <time>2018-01-28T15:43:53.999Z</time>
      </trkpt>
      <trkpt lat="44.39436" lon="1.47465">
        <ele>330.05</ele>
        <time>2018-01-28T15:44:04.999Z</time>
      </trkpt>
      <trkpt lat="44.39442" lon="1.47456">
        <ele>329.58</ele>
        <time>2018-01-28T15:44:13.999Z</time>
      </trkpt>
      <trkpt lat="44.39448" lon="1.47445">
        <ele>329.81</ele>
        <time>2018-01-28T15:44:23.999Z</time>
      </trkpt>
      <trkpt lat="44.39454" lon="1.47434">
        <ele>329.5</ele>
        <time>2018-01-28T15:44:32.999Z</time>
      </trkpt>
      <trkpt lat="44.3946" lon="1.47423">
        <ele>328.99</ele>
        <time>2018-01-28T15:44:42.999Z</time>
      </trkpt>
      <trkpt lat="44.39462" lon="1.4741">
        <ele>328.76</ele>
        <time>2018-01-28T15:44:51.999Z</time>
      </trkpt>
      <trkpt lat="44.39467" lon="1.47398">
        <ele>328.39</ele>
        <time>2018-01-28T15:45:01.999Z</time>
      </trkpt>
      <trkpt lat="44.39473" lon="1.47386">
        <ele>327.93</ele>
        <time>2018-01-28T15:45:12.999Z</time>
      </trkpt>
      <trkpt lat="44.39478" lon="1.47374">
        <ele>327.68</ele>
        <time>2018-01-28T15:45:20.999Z</time>
      </trkpt>
      <trkpt lat="44.39486" lon="1.47366">
        <ele>328.17</ele>
        <time>2018-01-28T15:45:28.999Z</time>
      </trkpt>
      <trkpt lat="44.39491" lon="1.47355">
        <ele>328.39</ele>
        <time>2018-01-28T15:45:37.999Z</time>
      </trkpt>
      <trkpt lat="44.39498" lon="1.47345">
        <ele>328.54</ele>
        <time>2018-01-28T15:45:47.999Z</time>
      </trkpt>
      <trkpt lat="44.39506" lon="1.47336">
        <ele>328.65</ele>
        <time>2018-01-28T15:45:57.999Z</time>
      </trkpt>
      <trkpt lat="44.39514" lon="1.4733">
        <ele>328.55</ele>
        <time>2018-01-28T15:46:08.999Z</time>
      </trkpt>
      <trkpt lat="44.39522" lon="1.47323">
        <ele>328.17</ele>
        <time>2018-01-28T15:46:18.999Z</time>
      </trkpt>
      <trkpt lat="44.39528" lon="1.47312">
        <ele>327.91</ele>
        <time>2018-01-28T15:46:26.999Z</time>
      </trkpt>
      <trkpt lat="44.39533" lon="1.47301">
        <ele>327.79</ele>
        <time>2018-01-28T15:46:34.999Z</time>
      </trkpt>
      <trkpt lat="44.39539" lon="1.47292">
        <ele>327.27</ele>
        <time>2018-01-28T15:46:43.999Z</time>
      </trkpt>
      <trkpt lat="44.39546" lon="1.47281">
        <ele>326.97</ele>
        <time>2018-01-28T15:46:53.999Z</time>
      </trkpt>
      <trkpt lat="44.39552" lon="1.4727">
        <ele>326.59</ele>
        <time>2018-01-28T15:47:02.999Z</time>
      </trkpt>
      <trkpt lat="44.39557" lon="1.47259">
        <ele>325.67</ele>
        <time>2018-01-28T15:47:15.999Z</time>
      </trkpt>
      <trkpt lat="44.39562" lon="1.47248">
        <ele>325.2</ele>
        <time>2018-01-28T15:47:23.999Z</time>
      </trkpt>
      <trkpt lat="44.39567" lon="1.47237">
        <ele>325.26</ele>
        <time>2018-01-28T15:47:32.999Z</time>
      </trkpt>
      <trkpt lat="44.39572" lon="1.47226">
        <ele>325.32</ele>
        <time>2018-01-28T15:47:43.999Z</time>
      </trkpt>
      <trkpt lat="44.39579" lon="1.47217">
        <ele>325.01</ele>
        <time>2018-01-28T15:47:54.999Z</time>
      </trkpt>
      <trkpt lat="44.39585" lon="1.47206">
        <ele>324.72</ele>
        <time>2018-01-28T15:48:03.999Z</time>
      </trkpt>
      <trkpt lat="44.3959" lon="1.47195">
        <ele>324.36</ele>
        <time>2018-01-28T15:48:13.999Z</time>
      </trkpt>
      <trkpt lat="44.39595" lon="1.47184">
        <ele>324.3</ele>
        <time>2018-01-28T15:48:23.999Z</time>
      </trkpt>
      <trkpt lat="44.39601" lon="1.47175">
        <ele>324.54</ele>
        <time>2018-01-28T15:48:32.999Z</time>
      </trkpt>
      <trkpt lat="44.39608" lon="1.47165">
        <ele>324.54</ele>
        <time>2018-01-28T15:48:43.999Z</time>
      </trkpt>
      <trkpt lat="44.39617" lon="1.47159">
        <ele>325.72</ele>
        <time>2018-01-28T15:49:08.999Z</time>
      </trkpt>
      <trkpt lat="44.39622" lon="1.47148">
        <ele>324.84</ele>
        <time>2018-01-28T15:50:32.999Z</time>
      </trkpt>
      <trkpt lat="44.39628" lon="1.47137">
        <ele>324.26</ele>
        <time>2018-01-28T15:50:42.999Z</time>
      </trkpt>
      <trkpt lat="44.39631" lon="1.47125">
        <ele>324.38</ele>
        <time>2018-01-28T15:50:52.999Z</time>
      </trkpt>
      <trkpt lat="44.39632" lon="1.47111">
        <ele>324.67</ele>
        <time>2018-01-28T15:51:01.999Z</time>
      </trkpt>
      <trkpt lat="44.39635" lon="1.47099">
        <ele>325.01</ele>
        <time>2018-01-28T15:51:11.999Z</time>
      </trkpt>
      <trkpt lat="44.39636" lon="1.47086">
        <ele>324.97</ele>
        <time>2018-01-28T15:51:22.999Z</time>
      </trkpt>
      <trkpt lat="44.39636" lon="1.47072">
        <ele>324.85</ele>
        <time>2018-01-28T15:51:30.999Z</time>
      </trkpt>
      <trkpt lat="44.39637" lon="1.47058">
        <ele>325.31</ele>
        <time>2018-01-28T15:51:41.999Z</time>
      </trkpt>
      <trkpt lat="44.39639" lon="1.47046">
        <ele>325.68</ele>
        <time>2018-01-28T15:51:50.999Z</time>
      </trkpt>
      <trkpt lat="44.3964" lon="1.47033">
        <ele>326.07</ele>
        <time>2018-01-28T15:51:58.999Z</time>
      </trkpt>
      <trkpt lat="44.39644" lon="1.47021">
        <ele>326.06</ele>
        <time>2018-01-28T15:52:09.999Z</time>
      </trkpt>
      <trkpt lat="44.39645" lon="1.47007">
        <ele>326.12</ele>
        <time>2018-01-28T15:52:18.999Z</time>
      </trkpt>
      <trkpt lat="44.39645" lon="1.46994">
        <ele>326.06</ele>
        <time>2018-01-28T15:52:26.999Z</time>
      </trkpt>
      <trkpt lat="44.39647" lon="1.4698">
        <ele>326.26</ele>
        <time>2018-01-28T15:52:35.999Z</time>
      </trkpt>
      <trkpt lat="44.39649" lon="1.46967">
        <ele>326.76</ele>
        <time>2018-01-28T15:52:44.999Z</time>
      </trkpt>
      <trkpt lat="44.39652" lon="1.46955">
        <ele>326.3</ele>
        <time>2018-01-28T15:52:54.999Z</time>
      </trkpt>
      <trkpt lat="44.39653" lon="1.46939">
        <ele>326.16</ele>
        <time>2018-01-28T15:53:03.999Z</time>
      </trkpt>
      <trkpt lat="44.39656" lon="1.46927">
        <ele>325.94</ele>
        <time>2018-01-28T15:53:11.999Z</time>
      </trkpt>
      <trkpt lat="44.39659" lon="1.46914">
        <ele>326.02</ele>
        <time>2018-01-28T15:53:20.999Z</time>
      </trkpt>
      <trkpt lat="44.3966" lon="1.46901">
        <ele>325.71</ele>
        <time>2018-01-28T15:53:28.999Z</time>
      </trkpt>
      <trkpt lat="44.3966" lon="1.46888">
        <ele>325.77</ele>
        <time>2018-01-28T15:53:37.999Z</time>
      </trkpt>
      <trkpt lat="44.39663" lon="1.46875">
        <ele>326.16</ele>
        <time>2018-01-28T15:53:45.999Z</time>
      </trkpt>
      <trkpt lat="44.39663" lon="1.46861">
        <ele>326.94</ele>
        <time>2018-01-28T15:53:55.999Z</time>
      </trkpt>
      <trkpt lat="44.39664" lon="1.46847">
        <ele>326.7</ele>
        <time>2018-01-28T15:54:03.999Z</time>
      </trkpt>
      <trkpt lat="44.39666" lon="1.46834">
        <ele>327.18</ele>
        <time>2018-01-28T15:54:11.999Z</time>
      </trkpt>
      <trkpt lat="44.39669" lon="1.46822">
        <ele>327.35</ele>
        <time>2018-01-28T15:54:19.999Z</time>
      </trkpt>
      <trkpt lat="44.39668" lon="1.46807">
        <ele>327.24</ele>
        <time>2018-01-28T15:54:28.999Z</time>
      </trkpt>
      <trkpt lat="44.39671" lon="1.46794">
        <ele>327.21</ele>
        <time>2018-01-28T15:54:38.999Z</time>
      </trkpt>
      <trkpt lat="44.39674" lon="1.46782">
        <ele>327.16</ele>
        <time>2018-01-28T15:54:48.999Z</time>
      </trkpt>
      <trkpt lat="44.39676" lon="1.46767">
        <ele>327.14</ele>
        <time>2018-01-28T15:54:59.999Z</time>
      </trkpt>
      <trkpt lat="44.39675" lon="1.46754">
        <ele>327.11</ele>
        <time>2018-01-28T15:55:08.999Z</time>
      </trkpt>
      <trkpt lat="44.39677" lon="1.46741">
        <ele>326.84</ele>
        <time>2018-01-28T15:55:18.999Z</time>
      </trkpt>
      <trkpt lat="44.39679" lon="1.46726">
        <ele>326.78</ele>
        <time>2018-01-28T15:55:28.999Z</time>
      </trkpt>
      <trkpt lat="44.3968" lon="1.46711">
        <ele>327.08</ele>
        <time>2018-01-28T15:55:37.999Z</time>
      </trkpt>
      <trkpt lat="44.39678" lon="1.46698">
        <ele>327.6</ele>
        <time>2018-01-28T15:55:47.999Z</time>
      </trkpt>
      <trkpt lat="44.39679" lon="1.46685">
        <ele>328.18</ele>
        <time>2018-01-28T15:55:56.999Z</time>
      </trkpt>
      <trkpt lat="44.39678" lon="1.46671">
        <ele>328.59</ele>
        <time>2018-01-28T15:56:04.999Z</time>
      </trkpt>
      <trkpt lat="44.39676" lon="1.46658">
        <ele>328.48</ele>
        <time>2018-01-28T15:56:12.999Z</time>
      </trkpt>
      <trkpt lat="44.39677" lon="1.46645">
        <ele>328.08</ele>
        <time>2018-01-28T15:56:21.999Z</time>
      </trkpt>
      <trkpt lat="44.39678" lon="1.46632">
        <ele>327.73</ele>
        <time>2018-01-28T15:56:28.999Z</time>
      </trkpt>
      <trkpt lat="44.39677" lon="1.46618">
        <ele>328.03</ele>
        <time>2018-01-28T15:56:36.999Z</time>
      </trkpt>
      <trkpt lat="44.39676" lon="1.46605">
        <ele>328.1</ele>
        <time>2018-01-28T15:56:45.999Z</time>
      </trkpt>
      <trkpt lat="44.39676" lon="1.46591">
        <ele>328.01</ele>
        <time>2018-01-28T15:56:54.999Z</time>
      </trkpt>
      <trkpt lat="44.39674" lon="1.46578">
        <ele>328.39</ele>
        <time>2018-01-28T15:57:03.999Z</time>
      </trkpt>
      <trkpt lat="44.39674" lon="1.46565">
        <ele>328.79</ele>
        <time>2018-01-28T15:57:12.999Z</time>
      </trkpt>
      <trkpt lat="44.39675" lon="1.46553">
        <ele>328.86</ele>
        <time>2018-01-28T15:57:21.999Z</time>
      </trkpt>
      <trkpt lat="44.39674" lon="1.4654">
        <ele>328.33</ele>
        <time>2018-01-28T15:57:29.999Z</time>
      </trkpt>
      <trkpt lat="44.39673" lon="1.46527">
        <ele>327.96</ele>
        <time>2018-01-28T15:57:39.999Z</time>
      </trkpt>
      <trkpt lat="44.39671" lon="1.46514">
        <ele>327.54</ele>
        <time>2018-01-28T15:57:48.999Z</time>
      </trkpt>
      <trkpt lat="44.3967" lon="1.46501">
        <ele>326.87</ele>
        <time>2018-01-28T15:57:57.999Z</time>
      </trkpt>
      <trkpt lat="44.39678" lon="1.46494">
        <ele>326.68</ele>
        <time>2018-01-28T15:58:05.999Z</time>
      </trkpt>
      <trkpt lat="44.39687" lon="1.46496">
        <ele>326.61</ele>
        <time>2018-01-28T15:58:12.999Z</time>
      </trkpt>
      <trkpt lat="44.39698" lon="1.46499">
        <ele>327.03</ele>
        <time>2018-01-28T15:58:24.999Z</time>
      </trkpt>
      <trkpt lat="44.39707" lon="1.46501">
        <ele>326.46</ele>
        <time>2018-01-28T15:58:33.999Z</time>
      </trkpt>
      <trkpt lat="44.39716" lon="1.46504">
        <ele>326.39</ele>
        <time>2018-01-28T15:58:41.999Z</time>
      </trkpt>
      <trkpt lat="44.39725" lon="1.4651">
        <ele>326.44</ele>
        <time>2018-01-28T15:58:50.999Z</time>
      </trkpt>
      <trkpt lat="44.39733" lon="1.46517">
        <ele>326.43</ele>
        <time>2018-01-28T15:58:57.999Z</time>
      </trkpt>
      <trkpt lat="44.3974" lon="1.46525">
        <ele>326.54</ele>
        <time>2018-01-28T15:59:08.999Z</time>
      </trkpt>
      <trkpt lat="44.39749" lon="1.46533">
        <ele>326.28</ele>
        <time>2018-01-28T15:59:17.999Z</time>
      </trkpt>
      <trkpt lat="44.39756" lon="1.46541">
        <ele>325.85</ele>
        <time>2018-01-28T15:59:26.999Z</time>
      </trkpt>
      <trkpt lat="44.39764" lon="1.46549">
        <ele>324.78</ele>
        <time>2018-01-28T15:59:37.999Z</time>
      </trkpt>
      <trkpt lat="44.39772" lon="1.46558">
        <ele>323.5</ele>
        <time>2018-01-28T15:59:47.999Z</time>
      </trkpt>
      <trkpt lat="44.39779" lon="1.46567">
        <ele>322.74</ele>
        <time>2018-01-28T15:59:56.999Z</time>
      </trkpt>
      <trkpt lat="44.39787" lon="1.46574">
        <ele>322.12</ele>
        <time>2018-01-28T16:00:06.999Z</time>
      </trkpt>
      <trkpt lat="44.39795" lon="1.46583">
        <ele>321.93</ele>
        <time>2018-01-28T16:00:14.999Z</time>
      </trkpt>
      <trkpt lat="44.39805" lon="1.46589">
        <ele>322.06</ele>
        <time>2018-01-28T16:00:21.999Z</time>
      </trkpt>
      <trkpt lat="44.39813" lon="1.46596">
        <ele>321.89</ele>
        <time>2018-01-28T16:00:30.999Z</time>
      </trkpt>
      <trkpt lat="44.39821" lon="1.46602">
        <ele>322.24</ele>
        <time>2018-01-28T16:00:41.999Z</time>
      </trkpt>
      <trkpt lat="44.39829" lon="1.46608">
        <ele>321.55</ele>
        <time>2018-01-28T16:00:50.999Z</time>
      </trkpt>
      <trkpt lat="44.39837" lon="1.46616">
        <ele>320.92</ele>
        <time>2018-01-28T16:01:00.999Z</time>
      </trkpt>
      <trkpt lat="44.39845" lon="1.46625">
        <ele>320.72</ele>
        <time>2018-01-28T16:01:09.999Z</time>
      </trkpt>
      <trkpt lat="44.39853" lon="1.46632">
        <ele>319.97</ele>
        <time>2018-01-28T16:01:18.999Z</time>
      </trkpt>
      <trkpt lat="44.39861" lon="1.4664">
        <ele>319.54</ele>
        <time>2018-01-28T16:01:26.999Z</time>
      </trkpt>
      <trkpt lat="44.39869" lon="1.46647">
        <ele>319.44</ele>
        <time>2018-01-28T16:01:34.999Z</time>
      </trkpt>
      <trkpt lat="44.39878" lon="1.46653">
        <ele>318.67</ele>
        <time>2018-01-28T16:01:44.999Z</time>
      </trkpt>
      <trkpt lat="44.39886" lon="1.46659">
        <ele>318.33</ele>
        <time>2018-01-28T16:01:53.999Z</time>
      </trkpt>
      <trkpt lat="44.39893" lon="1.46667">
        <ele>318.05</ele>
        <time>2018-01-28T16:02:00.999Z</time>
      </trkpt>
      <trkpt lat="44.39901" lon="1.46673">
        <ele>317.9</ele>
        <time>2018-01-28T16:02:09.999Z</time>
      </trkpt>
      <trkpt lat="44.3991" lon="1.4668">
        <ele>317.71</ele>
        <time>2018-01-28T16:02:21.999Z</time>
      </trkpt>
      <trkpt lat="44.39918" lon="1.46688">
        <ele>317.41</ele>
        <time>2018-01-28T16:02:30.999Z</time>
      </trkpt>
      <trkpt lat="44.39927" lon="1.46695">
        <ele>317.04</ele>
        <time>2018-01-28T16:02:39.999Z</time>
      </trkpt>
      <trkpt lat="44.39936" lon="1.46701">
        <ele>316.68</ele>
        <time>2018-01-28T16:02:47.999Z</time>
      </trkpt>
      <trkpt lat="44.39944" lon="1.46708">
        <ele>315.84</ele>
        <time>2018-01-28T16:02:57.999Z</time>
      </trkpt>
      <trkpt lat="44.39953" lon="1.46712">
        <ele>315.04</ele>
        <time>2018-01-28T16:03:07.999Z</time>
      </trkpt>
      <trkpt lat="44.39961" lon="1.4672">
        <ele>314.61</ele>
        <time>2018-01-28T16:03:16.999Z</time>
      </trkpt>
      <trkpt lat="44.39969" lon="1.46728">
        <ele>314.25</ele>
        <time>2018-01-28T16:03:25.999Z</time>
      </trkpt>
      <trkpt lat="44.39977" lon="1.46736">
        <ele>314.48</ele>
        <time>2018-01-28T16:03:35.999Z</time>
      </trkpt>
      <trkpt lat="44.39986" lon="1.46743">
        <ele>314.35</ele>
        <time>2018-01-28T16:03:45.999Z</time>
      </trkpt>
      <trkpt lat="44.39994" lon="1.46749">
        <ele>314.29</ele>
        <time>2018-01-28T16:03:53.999Z</time>
      </trkpt>
      <trkpt lat="44.40003" lon="1.46755">
        <ele>314.46</ele>
        <time>2018-01-28T16:04:01.999Z</time>
      </trkpt>
      <trkpt lat="44.40011" lon="1.46762">
        <ele>314.73</ele>
        <time>2018-01-28T16:04:11.999Z</time>
      </trkpt>
      <trkpt lat="44.40019" lon="1.46767">
        <ele>314.64</ele>
        <time>2018-01-28T16:04:19.999Z</time>
      </trkpt>
      <trkpt lat="44.40027" lon="1.46774">
        <ele>314.42</ele>
        <time>2018-01-28T16:04:29.999Z</time>
      </trkpt>
      <trkpt lat="44.40035" lon="1.46781">
        <ele>314.29</ele>
        <time>2018-01-28T16:04:38.999Z</time>
      </trkpt>
      <trkpt lat="44.40043" lon="1.46788">
        <ele>314.49</ele>
        <time>2018-01-28T16:04:45.999Z</time>
      </trkpt>
      <trkpt lat="44.40051" lon="1.46796">
        <ele>315.1</ele>
        <time>2018-01-28T16:04:55.999Z</time>
      </trkpt>
      <trkpt lat="44.40059" lon="1.46802">
        <ele>315.25</ele>
        <time>2018-01-28T16:05:03.999Z</time>
      </trkpt>
      <trkpt lat="44.40069" lon="1.46807">
        <ele>315.8</ele>
        <time>2018-01-28T16:05:11.999Z</time>
      </trkpt>
      <trkpt lat="44.40079" lon="1.46806">
        <ele>316.34</ele>
        <time>2018-01-28T16:05:19.999Z</time>
      </trkpt>
      <trkpt lat="44.40088" lon="1.46806">
        <ele>316.59</ele>
        <time>2018-01-28T16:05:28.999Z</time>
      </trkpt>
      <trkpt lat="44.40097" lon="1.46804">
        <ele>316.55</ele>
        <time>2018-01-28T16:05:37.999Z</time>
      </trkpt>
      <trkpt lat="44.40107" lon="1.46799">
        <ele>316.32</ele>
        <time>2018-01-28T16:05:45.999Z</time>
      </trkpt>
      <trkpt lat="44.40117" lon="1.46794">
        <ele>316.55</ele>
        <time>2018-01-28T16:05:54.999Z</time>
      </trkpt>
      <trkpt lat="44.40124" lon="1.46785">
        <ele>316.74</ele>
        <time>2018-01-28T16:06:04.999Z</time>
      </trkpt>
      <trkpt lat="44.40132" lon="1.46776">
        <ele>316.77</ele>
        <time>2018-01-28T16:06:13.999Z</time>
      </trkpt>
      <trkpt lat="44.40139" lon="1.46768">
        <ele>316.88</ele>
        <time>2018-01-28T16:06:21.999Z</time>
      </trkpt>
      <trkpt lat="44.40144" lon="1.46757">
        <ele>316.87</ele>
        <time>2018-01-28T16:06:31.999Z</time>
      </trkpt>
      <trkpt lat="44.40149" lon="1.46745">
        <ele>316.97</ele>
        <time>2018-01-28T16:06:38.999Z</time>
      </trkpt>
      <trkpt lat="44.40155" lon="1.46735">
        <ele>317.28</ele>
        <time>2018-01-28T16:06:48.999Z</time>
      </trkpt>
      <trkpt lat="44.40161" lon="1.46725">
        <ele>317.2</ele>
        <time>2018-01-28T16:06:56.999Z</time>
      </trkpt>
      <trkpt lat="44.40167" lon="1.46714">
        <ele>317.43</ele>
        <time>2018-01-28T16:07:05.999Z</time>
      </trkpt>
      <trkpt lat="44.40169" lon="1.46701">
        <ele>316.91</ele>
        <time>2018-01-28T16:07:24.999Z</time>
      </trkpt>
      <trkpt lat="44.40175" lon="1.46691">
        <ele>316.65</ele>
        <time>2018-01-28T16:07:34.999Z</time>
      </trkpt>
      <trkpt lat="44.40183" lon="1.46681">
        <ele>316.82</ele>
        <time>2018-01-28T16:07:44.999Z</time>
      </trkpt>
      <trkpt lat="44.40189" lon="1.46671">
        <ele>317.07</ele>
        <time>2018-01-28T16:07:52.999Z</time>
      </trkpt>
      <trkpt lat="44.40194" lon="1.46659">
        <ele>317.41</ele>
        <time>2018-01-28T16:08:03.999Z</time>
      </trkpt>
      <trkpt lat="44.40201" lon="1.4665">
        <ele>317.79</ele>
        <time>2018-01-28T16:08:12.999Z</time>
      </trkpt>
      <trkpt lat="44.40208" lon="1.46641">
        <ele>318.17</ele>
        <time>2018-01-28T16:08:22.999Z</time>
      </trkpt>
      <trkpt lat="44.40216" lon="1.46634">
        <ele>318.17</ele>
        <time>2018-01-28T16:08:30.999Z</time>
      </trkpt>
      <trkpt lat="44.40222" lon="1.46624">
        <ele>318.4</ele>
        <time>2018-01-28T16:08:42.999Z</time>
      </trkpt>
      <trkpt lat="44.40231" lon="1.46617">
        <ele>318.48</ele>
        <time>2018-01-28T16:08:56.999Z</time>
      </trkpt>
      <trkpt lat="44.40237" lon="1.46607">
        <ele>318.16</ele>
        <time>2018-01-28T16:09:04.999Z</time>
      </trkpt>
      <trkpt lat="44.40245" lon="1.46597">
        <ele>317.94</ele>
        <time>2018-01-28T16:09:11.999Z</time>
      </trkpt>
      <trkpt lat="44.40252" lon="1.46587">
        <ele>318.34</ele>
        <time>2018-01-28T16:09:24.999Z</time>
      </trkpt>
      <trkpt lat="44.40258" lon="1.46578">
        <ele>318.02</ele>
        <time>2018-01-28T16:09:32.999Z</time>
      </trkpt>
      <trkpt lat="44.40266" lon="1.46571">
        <ele>317.69</ele>
        <time>2018-01-28T16:09:39.999Z</time>
      </trkpt>
      <trkpt lat="44.40274" lon="1.46563">
        <ele>317.29</ele>
        <time>2018-01-28T16:09:47.999Z</time>
      </trkpt>
      <trkpt lat="44.40281" lon="1.46552">
        <ele>317.27</ele>
        <time>2018-01-28T16:09:56.999Z</time>
      </trkpt>
      <trkpt lat="44.40286" lon="1.46541">
        <ele>317.14</ele>
        <time>2018-01-28T16:10:03.999Z</time>
      </trkpt>
      <trkpt lat="44.40292" lon="1.46531">
        <ele>316.62</ele>
        <time>2018-01-28T16:10:12.999Z</time>
      </trkpt>
      <trkpt lat="44.40297" lon="1.4652">
        <ele>316.93</ele>
        <time>2018-01-28T16:10:23.999Z</time>
      </trkpt>
      <trkpt lat="44.40303" lon="1.46511">
        <ele>317.31</ele>
        <time>2018-01-28T16:10:34.999Z</time>
      </trkpt>
      <trkpt lat="44.40308" lon="1.465">
        <ele>317.8</ele>
        <time>2018-01-28T16:10:49.999Z</time>
      </trkpt>
      <trkpt lat="44.40313" lon="1.46488">
        <ele>317.44</ele>
        <time>2018-01-28T16:11:01.999Z</time>
      </trkpt>
    </trkseg>
  </trk>
</gpx>